<?xml version="1.0" encoding="UTF-8" standalone="no" ?>
<gpx xmlns="http://www.topografix.com/GPX/1/1" xmlns:xsi="http://www.w3.org/2001/XMLSchema-instance" xsi:schemaLocation="http://www.topografix.com/GPX/1/1 http://www.topografix.com/GPX/1/1/gpx.xsd" version="1.1" creator="VisuGPX - https://www.visugpx.com">
  <metadata>
    <name>marche Joncherey</name>
    <desc><![CDATA[marche populaire joncherey 2016]]></desc>
  </metadata>
  <trk>
    <name><![CDATA[marche Joncherey_1]]></name>
    <trkseg>
      <trkpt lat="47.52596" lon="7.0012">
        <ele>357.2</ele>
        <time>2016-06-05T08:17:26Z</time>
      </trkpt>
      <trkpt lat="47.52596" lon="7.0012">
        <ele>408</ele>
        <time>2016-06-05T08:17:27Z</time>
      </trkpt>
      <trkpt lat="47.52585" lon="7.00138">
        <ele>404</ele>
        <time>2016-06-05T08:18:17Z</time>
      </trkpt>
      <trkpt lat="47.52571" lon="7.00143">
        <ele>404</ele>
        <time>2016-06-05T08:18:29Z</time>
      </trkpt>
      <trkpt lat="47.52567" lon="7.00147">
        <ele>403</ele>
        <time>2016-06-05T08:18:32Z</time>
      </trkpt>
      <trkpt lat="47.52562" lon="7.00142">
        <ele>401</ele>
        <time>2016-06-05T08:18:41Z</time>
      </trkpt>
      <trkpt lat="47.52554" lon="7.00173">
        <ele>406</ele>
        <time>2016-06-05T08:19:28Z</time>
      </trkpt>
      <trkpt lat="47.52557" lon="7.00193">
        <ele>404</ele>
        <time>2016-06-05T08:19:41Z</time>
      </trkpt>
      <trkpt lat="47.52563" lon="7.00204">
        <ele>402</ele>
        <time>2016-06-05T08:19:50Z</time>
      </trkpt>
      <trkpt lat="47.52564" lon="7.00204">
        <ele>402</ele>
        <time>2016-06-05T08:19:58Z</time>
      </trkpt>
      <trkpt lat="47.52554" lon="7.00242">
        <ele>404</ele>
        <time>2016-06-05T08:23:00Z</time>
      </trkpt>
      <trkpt lat="47.52551" lon="7.00263">
        <ele>408</ele>
        <time>2016-06-05T08:23:14Z</time>
      </trkpt>
      <trkpt lat="47.5255" lon="7.00279">
        <ele>406</ele>
        <time>2016-06-05T08:23:24Z</time>
      </trkpt>
      <trkpt lat="47.52549" lon="7.00293">
        <ele>401</ele>
        <time>2016-06-05T08:23:35Z</time>
      </trkpt>
      <trkpt lat="47.52549" lon="7.00312">
        <ele>401</ele>
        <time>2016-06-05T08:23:50Z</time>
      </trkpt>
      <trkpt lat="47.52546" lon="7.00331">
        <ele>396</ele>
        <time>2016-06-05T08:24:00Z</time>
      </trkpt>
      <trkpt lat="47.52545" lon="7.00367">
        <ele>396</ele>
        <time>2016-06-05T08:24:16Z</time>
      </trkpt>
      <trkpt lat="47.52543" lon="7.00398">
        <ele>399</ele>
        <time>2016-06-05T08:24:31Z</time>
      </trkpt>
      <trkpt lat="47.52542" lon="7.00429">
        <ele>401</ele>
        <time>2016-06-05T08:24:47Z</time>
      </trkpt>
      <trkpt lat="47.52542" lon="7.00455">
        <ele>404</ele>
        <time>2016-06-05T08:25:01Z</time>
      </trkpt>
      <trkpt lat="47.52543" lon="7.00483">
        <ele>406</ele>
        <time>2016-06-05T08:25:15Z</time>
      </trkpt>
      <trkpt lat="47.52546" lon="7.00502">
        <ele>406</ele>
        <time>2016-06-05T08:25:27Z</time>
      </trkpt>
      <trkpt lat="47.52556" lon="7.00528">
        <ele>405</ele>
        <time>2016-06-05T08:25:45Z</time>
      </trkpt>
      <trkpt lat="47.52568" lon="7.00553">
        <ele>405</ele>
        <time>2016-06-05T08:26:02Z</time>
      </trkpt>
      <trkpt lat="47.52579" lon="7.00574">
        <ele>405</ele>
        <time>2016-06-05T08:26:18Z</time>
      </trkpt>
      <trkpt lat="47.52587" lon="7.00593">
        <ele>404</ele>
        <time>2016-06-05T08:26:33Z</time>
      </trkpt>
      <trkpt lat="47.52593" lon="7.0061">
        <ele>406</ele>
        <time>2016-06-05T08:26:50Z</time>
      </trkpt>
      <trkpt lat="47.52603" lon="7.00626">
        <ele>406</ele>
        <time>2016-06-05T08:27:00Z</time>
      </trkpt>
      <trkpt lat="47.52616" lon="7.00649">
        <ele>407</ele>
        <time>2016-06-05T08:27:16Z</time>
      </trkpt>
      <trkpt lat="47.52629" lon="7.00673">
        <ele>407</ele>
        <time>2016-06-05T08:27:34Z</time>
      </trkpt>
      <trkpt lat="47.52639" lon="7.00694">
        <ele>407</ele>
        <time>2016-06-05T08:27:47Z</time>
      </trkpt>
      <trkpt lat="47.5265" lon="7.00714">
        <ele>410</ele>
        <time>2016-06-05T08:28:03Z</time>
      </trkpt>
      <trkpt lat="47.52662" lon="7.0074">
        <ele>414</ele>
        <time>2016-06-05T08:28:21Z</time>
      </trkpt>
      <trkpt lat="47.52676" lon="7.00768">
        <ele>412</ele>
        <time>2016-06-05T08:28:39Z</time>
      </trkpt>
      <trkpt lat="47.52686" lon="7.00791">
        <ele>413</ele>
        <time>2016-06-05T08:28:54Z</time>
      </trkpt>
      <trkpt lat="47.52688" lon="7.00819">
        <ele>411</ele>
        <time>2016-06-05T08:29:11Z</time>
      </trkpt>
      <trkpt lat="47.52687" lon="7.0084">
        <ele>410</ele>
        <time>2016-06-05T08:29:21Z</time>
      </trkpt>
      <trkpt lat="47.52696" lon="7.00864">
        <ele>411</ele>
        <time>2016-06-05T08:29:36Z</time>
      </trkpt>
      <trkpt lat="47.52701" lon="7.00877">
        <ele>412</ele>
        <time>2016-06-05T08:29:44Z</time>
      </trkpt>
      <trkpt lat="47.52715" lon="7.00899">
        <ele>413</ele>
        <time>2016-06-05T08:30:00Z</time>
      </trkpt>
      <trkpt lat="47.52713" lon="7.00925">
        <ele>411</ele>
        <time>2016-06-05T08:30:21Z</time>
      </trkpt>
      <trkpt lat="47.52713" lon="7.00925">
        <ele>411</ele>
        <time>2016-06-05T08:30:28Z</time>
      </trkpt>
      <trkpt lat="47.52713" lon="7.00925">
        <ele>411</ele>
        <time>2016-06-05T08:30:29Z</time>
      </trkpt>
      <trkpt lat="47.52712" lon="7.0095">
        <ele>410</ele>
        <time>2016-06-05T08:30:40Z</time>
      </trkpt>
      <trkpt lat="47.52718" lon="7.00979">
        <ele>413</ele>
        <time>2016-06-05T08:30:53Z</time>
      </trkpt>
      <trkpt lat="47.52727" lon="7.00996">
        <ele>416</ele>
        <time>2016-06-05T08:31:04Z</time>
      </trkpt>
      <trkpt lat="47.52747" lon="7.01013">
        <ele>419</ele>
        <time>2016-06-05T08:31:21Z</time>
      </trkpt>
      <trkpt lat="47.52747" lon="7.01032">
        <ele>419</ele>
        <time>2016-06-05T08:31:37Z</time>
      </trkpt>
      <trkpt lat="47.52761" lon="7.01046">
        <ele>423</ele>
        <time>2016-06-05T08:31:52Z</time>
      </trkpt>
      <trkpt lat="47.52771" lon="7.0107">
        <ele>429</ele>
        <time>2016-06-05T08:32:10Z</time>
      </trkpt>
      <trkpt lat="47.52777" lon="7.01088">
        <ele>428</ele>
        <time>2016-06-05T08:32:23Z</time>
      </trkpt>
      <trkpt lat="47.52784" lon="7.01107">
        <ele>425</ele>
        <time>2016-06-05T08:32:40Z</time>
      </trkpt>
      <trkpt lat="47.52795" lon="7.01127">
        <ele>426</ele>
        <time>2016-06-05T08:32:57Z</time>
      </trkpt>
      <trkpt lat="47.52795" lon="7.01127">
        <ele>426</ele>
        <time>2016-06-05T08:33:05Z</time>
      </trkpt>
      <trkpt lat="47.52795" lon="7.01127">
        <ele>426</ele>
        <time>2016-06-05T08:33:06Z</time>
      </trkpt>
      <trkpt lat="47.528" lon="7.0115">
        <ele>431</ele>
        <time>2016-06-05T08:33:32Z</time>
      </trkpt>
      <trkpt lat="47.52808" lon="7.01173">
        <ele>434</ele>
        <time>2016-06-05T08:33:42Z</time>
      </trkpt>
      <trkpt lat="47.52812" lon="7.01174">
        <ele>435</ele>
        <time>2016-06-05T08:33:50Z</time>
      </trkpt>
      <trkpt lat="47.52826" lon="7.01211">
        <ele>429</ele>
        <time>2016-06-05T08:34:25Z</time>
      </trkpt>
      <trkpt lat="47.52837" lon="7.0125">
        <ele>430</ele>
        <time>2016-06-05T08:35:09Z</time>
      </trkpt>
      <trkpt lat="47.52849" lon="7.01273">
        <ele>435</ele>
        <time>2016-06-05T08:35:25Z</time>
      </trkpt>
      <trkpt lat="47.5285" lon="7.01282">
        <ele>430</ele>
        <time>2016-06-05T08:35:32Z</time>
      </trkpt>
      <trkpt lat="47.5285" lon="7.01293">
        <ele>427</ele>
        <time>2016-06-05T08:35:48Z</time>
      </trkpt>
      <trkpt lat="47.5285" lon="7.01307">
        <ele>426</ele>
        <time>2016-06-05T08:35:57Z</time>
      </trkpt>
      <trkpt lat="47.52858" lon="7.01341">
        <ele>425</ele>
        <time>2016-06-05T08:36:15Z</time>
      </trkpt>
      <trkpt lat="47.52861" lon="7.01356">
        <ele>425</ele>
        <time>2016-06-05T08:36:25Z</time>
      </trkpt>
      <trkpt lat="47.52862" lon="7.01356">
        <ele>425</ele>
        <time>2016-06-05T08:36:33Z</time>
      </trkpt>
      <trkpt lat="47.52865" lon="7.01387">
        <ele>425</ele>
        <time>2016-06-05T08:36:56Z</time>
      </trkpt>
      <trkpt lat="47.52867" lon="7.01396">
        <ele>426</ele>
        <time>2016-06-05T08:36:59Z</time>
      </trkpt>
      <trkpt lat="47.52867" lon="7.01402">
        <ele>425</ele>
        <time>2016-06-05T08:37:07Z</time>
      </trkpt>
      <trkpt lat="47.52873" lon="7.01422">
        <ele>424</ele>
        <time>2016-06-05T08:37:29Z</time>
      </trkpt>
      <trkpt lat="47.52879" lon="7.01439">
        <ele>425</ele>
        <time>2016-06-05T08:37:39Z</time>
      </trkpt>
      <trkpt lat="47.52882" lon="7.0145">
        <ele>425</ele>
        <time>2016-06-05T08:37:46Z</time>
      </trkpt>
      <trkpt lat="47.52886" lon="7.01461">
        <ele>425</ele>
        <time>2016-06-05T08:37:59Z</time>
      </trkpt>
      <trkpt lat="47.52894" lon="7.01484">
        <ele>429</ele>
        <time>2016-06-05T08:38:13Z</time>
      </trkpt>
      <trkpt lat="47.52904" lon="7.01516">
        <ele>424</ele>
        <time>2016-06-05T08:38:34Z</time>
      </trkpt>
      <trkpt lat="47.52918" lon="7.01538">
        <ele>428</ele>
        <time>2016-06-05T08:38:49Z</time>
      </trkpt>
      <trkpt lat="47.52927" lon="7.01556">
        <ele>429</ele>
        <time>2016-06-05T08:39:01Z</time>
      </trkpt>
      <trkpt lat="47.52932" lon="7.01568">
        <ele>430</ele>
        <time>2016-06-05T08:39:12Z</time>
      </trkpt>
      <trkpt lat="47.52943" lon="7.01577">
        <ele>427</ele>
        <time>2016-06-05T08:39:28Z</time>
      </trkpt>
      <trkpt lat="47.52951" lon="7.01597">
        <ele>427</ele>
        <time>2016-06-05T08:39:40Z</time>
      </trkpt>
      <trkpt lat="47.52951" lon="7.01597">
        <ele>427</ele>
        <time>2016-06-05T08:39:45Z</time>
      </trkpt>
      <trkpt lat="47.52951" lon="7.01597">
        <ele>427</ele>
        <time>2016-06-05T08:39:46Z</time>
      </trkpt>
      <trkpt lat="47.52956" lon="7.01616">
        <ele>429</ele>
        <time>2016-06-05T08:40:02Z</time>
      </trkpt>
      <trkpt lat="47.52966" lon="7.0164">
        <ele>431</ele>
        <time>2016-06-05T08:40:18Z</time>
      </trkpt>
      <trkpt lat="47.52971" lon="7.01661">
        <ele>430</ele>
        <time>2016-06-05T08:40:33Z</time>
      </trkpt>
      <trkpt lat="47.52979" lon="7.01696">
        <ele>432</ele>
        <time>2016-06-05T08:40:47Z</time>
      </trkpt>
      <trkpt lat="47.52979" lon="7.01696">
        <ele>432</ele>
        <time>2016-06-05T08:40:53Z</time>
      </trkpt>
      <trkpt lat="47.52979" lon="7.01696">
        <ele>432</ele>
        <time>2016-06-05T08:40:54Z</time>
      </trkpt>
      <trkpt lat="47.52994" lon="7.01718">
        <ele>437</ele>
        <time>2016-06-05T08:41:12Z</time>
      </trkpt>
      <trkpt lat="47.5299" lon="7.01721">
        <ele>436</ele>
        <time>2016-06-05T08:41:19Z</time>
      </trkpt>
      <trkpt lat="47.52991" lon="7.01723">
        <ele>438</ele>
        <time>2016-06-05T08:41:27Z</time>
      </trkpt>
      <trkpt lat="47.52996" lon="7.01747">
        <ele>443</ele>
        <time>2016-06-05T08:41:44Z</time>
      </trkpt>
      <trkpt lat="47.53009" lon="7.01776">
        <ele>445</ele>
        <time>2016-06-05T08:41:55Z</time>
      </trkpt>
      <trkpt lat="47.5301" lon="7.01786">
        <ele>444</ele>
        <time>2016-06-05T08:42:02Z</time>
      </trkpt>
      <trkpt lat="47.5301" lon="7.01786">
        <ele>444</ele>
        <time>2016-06-05T08:42:10Z</time>
      </trkpt>
      <trkpt lat="47.5301" lon="7.01786">
        <ele>444</ele>
        <time>2016-06-05T08:42:11Z</time>
      </trkpt>
      <trkpt lat="47.53022" lon="7.01801">
        <ele>444</ele>
        <time>2016-06-05T08:42:24Z</time>
      </trkpt>
      <trkpt lat="47.53042" lon="7.01813">
        <ele>441</ele>
        <time>2016-06-05T08:42:42Z</time>
      </trkpt>
      <trkpt lat="47.53053" lon="7.01811">
        <ele>439</ele>
        <time>2016-06-05T08:42:51Z</time>
      </trkpt>
      <trkpt lat="47.53079" lon="7.01804">
        <ele>441</ele>
        <time>2016-06-05T08:43:13Z</time>
      </trkpt>
      <trkpt lat="47.53071" lon="7.01782">
        <ele>434</ele>
        <time>2016-06-05T08:43:26Z</time>
      </trkpt>
      <trkpt lat="47.53069" lon="7.01763">
        <ele>432</ele>
        <time>2016-06-05T08:43:37Z</time>
      </trkpt>
      <trkpt lat="47.53066" lon="7.01744">
        <ele>434</ele>
        <time>2016-06-05T08:43:47Z</time>
      </trkpt>
      <trkpt lat="47.53065" lon="7.01737">
        <ele>431</ele>
        <time>2016-06-05T08:44:03Z</time>
      </trkpt>
      <trkpt lat="47.53073" lon="7.01719">
        <ele>433</ele>
        <time>2016-06-05T08:44:14Z</time>
      </trkpt>
      <trkpt lat="47.53085" lon="7.01714">
        <ele>435</ele>
        <time>2016-06-05T08:44:25Z</time>
      </trkpt>
      <trkpt lat="47.53102" lon="7.01711">
        <ele>434</ele>
        <time>2016-06-05T08:44:43Z</time>
      </trkpt>
      <trkpt lat="47.53108" lon="7.01709">
        <ele>434</ele>
        <time>2016-06-05T08:44:48Z</time>
      </trkpt>
      <trkpt lat="47.53115" lon="7.0171">
        <ele>434</ele>
        <time>2016-06-05T08:45:03Z</time>
      </trkpt>
      <trkpt lat="47.53131" lon="7.01716">
        <ele>430</ele>
        <time>2016-06-05T08:45:17Z</time>
      </trkpt>
      <trkpt lat="47.53148" lon="7.01699">
        <ele>439</ele>
        <time>2016-06-05T08:45:34Z</time>
      </trkpt>
      <trkpt lat="47.53157" lon="7.01691">
        <ele>441</ele>
        <time>2016-06-05T08:45:47Z</time>
      </trkpt>
      <trkpt lat="47.5317" lon="7.01689">
        <ele>441</ele>
        <time>2016-06-05T08:46:00Z</time>
      </trkpt>
      <trkpt lat="47.5319" lon="7.01684">
        <ele>442</ele>
        <time>2016-06-05T08:46:18Z</time>
      </trkpt>
      <trkpt lat="47.53202" lon="7.01686">
        <ele>445</ele>
        <time>2016-06-05T08:46:30Z</time>
      </trkpt>
      <trkpt lat="47.5321" lon="7.01692">
        <ele>449</ele>
        <time>2016-06-05T08:46:44Z</time>
      </trkpt>
      <trkpt lat="47.53219" lon="7.01718">
        <ele>449</ele>
        <time>2016-06-05T08:47:04Z</time>
      </trkpt>
      <trkpt lat="47.53227" lon="7.01735">
        <ele>450</ele>
        <time>2016-06-05T08:47:17Z</time>
      </trkpt>
      <trkpt lat="47.53232" lon="7.01746">
        <ele>449</ele>
        <time>2016-06-05T08:47:25Z</time>
      </trkpt>
      <trkpt lat="47.53237" lon="7.01752">
        <ele>445</ele>
        <time>2016-06-05T08:47:38Z</time>
      </trkpt>
      <trkpt lat="47.53251" lon="7.01787">
        <ele>449</ele>
        <time>2016-06-05T08:47:57Z</time>
      </trkpt>
      <trkpt lat="47.53267" lon="7.01808">
        <ele>451</ele>
        <time>2016-06-05T08:48:11Z</time>
      </trkpt>
      <trkpt lat="47.53277" lon="7.01827">
        <ele>455</ele>
        <time>2016-06-05T08:48:22Z</time>
      </trkpt>
      <trkpt lat="47.53282" lon="7.01835">
        <ele>457</ele>
        <time>2016-06-05T08:48:34Z</time>
      </trkpt>
      <trkpt lat="47.53297" lon="7.0185">
        <ele>455</ele>
        <time>2016-06-05T08:48:53Z</time>
      </trkpt>
      <trkpt lat="47.53312" lon="7.01858">
        <ele>457</ele>
        <time>2016-06-05T08:49:05Z</time>
      </trkpt>
      <trkpt lat="47.53327" lon="7.01866">
        <ele>456</ele>
        <time>2016-06-05T08:49:16Z</time>
      </trkpt>
      <trkpt lat="47.53341" lon="7.01878">
        <ele>454</ele>
        <time>2016-06-05T08:49:35Z</time>
      </trkpt>
      <trkpt lat="47.53356" lon="7.01885">
        <ele>456</ele>
        <time>2016-06-05T08:49:51Z</time>
      </trkpt>
      <trkpt lat="47.53378" lon="7.01882">
        <ele>460</ele>
        <time>2016-06-05T08:50:05Z</time>
      </trkpt>
      <trkpt lat="47.53405" lon="7.019">
        <ele>456</ele>
        <time>2016-06-05T08:50:22Z</time>
      </trkpt>
      <trkpt lat="47.53412" lon="7.0191">
        <ele>455</ele>
        <time>2016-06-05T08:50:33Z</time>
      </trkpt>
      <trkpt lat="47.53424" lon="7.01922">
        <ele>453</ele>
        <time>2016-06-05T08:50:48Z</time>
      </trkpt>
      <trkpt lat="47.53435" lon="7.0194">
        <ele>453</ele>
        <time>2016-06-05T08:51:02Z</time>
      </trkpt>
      <trkpt lat="47.53452" lon="7.01963">
        <ele>447</ele>
        <time>2016-06-05T08:51:20Z</time>
      </trkpt>
      <trkpt lat="47.5348" lon="7.01983">
        <ele>449</ele>
        <time>2016-06-05T08:51:38Z</time>
      </trkpt>
      <trkpt lat="47.53488" lon="7.02001">
        <ele>455</ele>
        <time>2016-06-05T08:51:49Z</time>
      </trkpt>
      <trkpt lat="47.53492" lon="7.02008">
        <ele>457</ele>
        <time>2016-06-05T08:51:52Z</time>
      </trkpt>
      <trkpt lat="47.535" lon="7.02018">
        <ele>460</ele>
        <time>2016-06-05T08:52:03Z</time>
      </trkpt>
      <trkpt lat="47.5351" lon="7.02036">
        <ele>460</ele>
        <time>2016-06-05T08:52:19Z</time>
      </trkpt>
      <trkpt lat="47.53519" lon="7.0206">
        <ele>461</ele>
        <time>2016-06-05T08:52:34Z</time>
      </trkpt>
      <trkpt lat="47.53538" lon="7.02084">
        <ele>461</ele>
        <time>2016-06-05T08:52:48Z</time>
      </trkpt>
      <trkpt lat="47.5355" lon="7.02098">
        <ele>462</ele>
        <time>2016-06-05T08:53:00Z</time>
      </trkpt>
      <trkpt lat="47.53561" lon="7.02115">
        <ele>459</ele>
        <time>2016-06-05T08:53:14Z</time>
      </trkpt>
      <trkpt lat="47.53572" lon="7.02136">
        <ele>459</ele>
        <time>2016-06-05T08:53:29Z</time>
      </trkpt>
      <trkpt lat="47.53583" lon="7.0215">
        <ele>461</ele>
        <time>2016-06-05T08:53:46Z</time>
      </trkpt>
      <trkpt lat="47.53595" lon="7.02159">
        <ele>466</ele>
        <time>2016-06-05T08:54:00Z</time>
      </trkpt>
      <trkpt lat="47.53605" lon="7.02182">
        <ele>462</ele>
        <time>2016-06-05T08:54:10Z</time>
      </trkpt>
      <trkpt lat="47.53624" lon="7.02189">
        <ele>455</ele>
        <time>2016-06-05T08:54:17Z</time>
      </trkpt>
      <trkpt lat="47.53636" lon="7.02199">
        <ele>453</ele>
        <time>2016-06-05T08:54:29Z</time>
      </trkpt>
      <trkpt lat="47.53636" lon="7.02199">
        <ele>453</ele>
        <time>2016-06-05T08:54:34Z</time>
      </trkpt>
      <trkpt lat="47.53641" lon="7.02207">
        <ele>448</ele>
        <time>2016-06-05T08:54:35Z</time>
      </trkpt>
      <trkpt lat="47.53659" lon="7.02194">
        <ele>448</ele>
        <time>2016-06-05T08:55:00Z</time>
      </trkpt>
      <trkpt lat="47.5367" lon="7.022">
        <ele>448</ele>
        <time>2016-06-05T08:55:08Z</time>
      </trkpt>
      <trkpt lat="47.53691" lon="7.02209">
        <ele>453</ele>
        <time>2016-06-05T08:55:21Z</time>
      </trkpt>
      <trkpt lat="47.53712" lon="7.02216">
        <ele>452</ele>
        <time>2016-06-05T08:55:34Z</time>
      </trkpt>
      <trkpt lat="47.53722" lon="7.02215">
        <ele>451</ele>
        <time>2016-06-05T08:55:45Z</time>
      </trkpt>
      <trkpt lat="47.53743" lon="7.02225">
        <ele>450</ele>
        <time>2016-06-05T08:56:04Z</time>
      </trkpt>
      <trkpt lat="47.53758" lon="7.02219">
        <ele>456</ele>
        <time>2016-06-05T08:56:15Z</time>
      </trkpt>
      <trkpt lat="47.53779" lon="7.02225">
        <ele>458</ele>
        <time>2016-06-05T08:56:30Z</time>
      </trkpt>
      <trkpt lat="47.53792" lon="7.02227">
        <ele>456</ele>
        <time>2016-06-05T08:56:41Z</time>
      </trkpt>
      <trkpt lat="47.53806" lon="7.02231">
        <ele>454</ele>
        <time>2016-06-05T08:56:53Z</time>
      </trkpt>
      <trkpt lat="47.53806" lon="7.02227">
        <ele>454</ele>
        <time>2016-06-05T08:57:01Z</time>
      </trkpt>
      <trkpt lat="47.53805" lon="7.02265">
        <ele>453</ele>
        <time>2016-06-05T08:58:49Z</time>
      </trkpt>
      <trkpt lat="47.538" lon="7.0229">
        <ele>451</ele>
        <time>2016-06-05T08:59:02Z</time>
      </trkpt>
      <trkpt lat="47.53795" lon="7.0231">
        <ele>445</ele>
        <time>2016-06-05T08:59:18Z</time>
      </trkpt>
      <trkpt lat="47.53796" lon="7.02333">
        <ele>444</ele>
        <time>2016-06-05T08:59:28Z</time>
      </trkpt>
      <trkpt lat="47.53791" lon="7.02355">
        <ele>441</ele>
        <time>2016-06-05T08:59:44Z</time>
      </trkpt>
      <trkpt lat="47.53788" lon="7.02377">
        <ele>444</ele>
        <time>2016-06-05T08:59:54Z</time>
      </trkpt>
      <trkpt lat="47.5378" lon="7.02405">
        <ele>446</ele>
        <time>2016-06-05T09:00:10Z</time>
      </trkpt>
      <trkpt lat="47.53775" lon="7.02423">
        <ele>448</ele>
        <time>2016-06-05T09:00:21Z</time>
      </trkpt>
      <trkpt lat="47.53772" lon="7.0244">
        <ele>450</ele>
        <time>2016-06-05T09:00:31Z</time>
      </trkpt>
      <trkpt lat="47.53771" lon="7.02459">
        <ele>453</ele>
        <time>2016-06-05T09:00:45Z</time>
      </trkpt>
      <trkpt lat="47.53765" lon="7.02467">
        <ele>458</ele>
        <time>2016-06-05T09:00:50Z</time>
      </trkpt>
      <trkpt lat="47.53768" lon="7.02471">
        <ele>459</ele>
        <time>2016-06-05T09:00:59Z</time>
      </trkpt>
      <trkpt lat="47.53769" lon="7.02499">
        <ele>458</ele>
        <time>2016-06-05T09:01:19Z</time>
      </trkpt>
      <trkpt lat="47.53763" lon="7.02524">
        <ele>456</ele>
        <time>2016-06-05T09:01:26Z</time>
      </trkpt>
      <trkpt lat="47.53758" lon="7.02538">
        <ele>457</ele>
        <time>2016-06-05T09:01:32Z</time>
      </trkpt>
      <trkpt lat="47.53754" lon="7.02554">
        <ele>460</ele>
        <time>2016-06-05T09:01:41Z</time>
      </trkpt>
      <trkpt lat="47.53754" lon="7.02572">
        <ele>458</ele>
        <time>2016-06-05T09:02:01Z</time>
      </trkpt>
      <trkpt lat="47.53753" lon="7.02588">
        <ele>454</ele>
        <time>2016-06-05T09:02:14Z</time>
      </trkpt>
      <trkpt lat="47.53749" lon="7.02603">
        <ele>459</ele>
        <time>2016-06-05T09:02:25Z</time>
      </trkpt>
      <trkpt lat="47.53749" lon="7.02603">
        <ele>459</ele>
        <time>2016-06-05T09:02:32Z</time>
      </trkpt>
      <trkpt lat="47.53749" lon="7.02603">
        <ele>459</ele>
        <time>2016-06-05T09:02:33Z</time>
      </trkpt>
      <trkpt lat="47.53738" lon="7.02619">
        <ele>465</ele>
        <time>2016-06-05T09:02:43Z</time>
      </trkpt>
      <trkpt lat="47.53721" lon="7.02646">
        <ele>466</ele>
        <time>2016-06-05T09:02:55Z</time>
      </trkpt>
      <trkpt lat="47.53721" lon="7.02646">
        <ele>466</ele>
        <time>2016-06-05T09:03:01Z</time>
      </trkpt>
      <trkpt lat="47.53721" lon="7.02646">
        <ele>466</ele>
        <time>2016-06-05T09:03:02Z</time>
      </trkpt>
      <trkpt lat="47.53706" lon="7.0265">
        <ele>463</ele>
        <time>2016-06-05T09:03:30Z</time>
      </trkpt>
      <trkpt lat="47.53692" lon="7.02663">
        <ele>462</ele>
        <time>2016-06-05T09:03:47Z</time>
      </trkpt>
      <trkpt lat="47.53675" lon="7.02679">
        <ele>461</ele>
        <time>2016-06-05T09:04:07Z</time>
      </trkpt>
      <trkpt lat="47.53673" lon="7.02682">
        <ele>460</ele>
        <time>2016-06-05T09:04:08Z</time>
      </trkpt>
      <trkpt lat="47.53665" lon="7.0269">
        <ele>461</ele>
        <time>2016-06-05T09:04:18Z</time>
      </trkpt>
      <trkpt lat="47.53662" lon="7.02693">
        <ele>462</ele>
        <time>2016-06-05T09:04:20Z</time>
      </trkpt>
      <trkpt lat="47.53665" lon="7.0269">
        <ele>461</ele>
        <time>2016-06-05T09:04:28Z</time>
      </trkpt>
      <trkpt lat="47.53649" lon="7.02697">
        <ele>457</ele>
        <time>2016-06-05T09:05:01Z</time>
      </trkpt>
      <trkpt lat="47.53643" lon="7.02714">
        <ele>454</ele>
        <time>2016-06-05T09:05:09Z</time>
      </trkpt>
      <trkpt lat="47.5363" lon="7.02731">
        <ele>457</ele>
        <time>2016-06-05T09:05:20Z</time>
      </trkpt>
      <trkpt lat="47.53616" lon="7.02737">
        <ele>464</ele>
        <time>2016-06-05T09:05:31Z</time>
      </trkpt>
      <trkpt lat="47.53624" lon="7.02734">
        <ele>462</ele>
        <time>2016-06-05T09:05:40Z</time>
      </trkpt>
      <trkpt lat="47.53631" lon="7.02748">
        <ele>462</ele>
        <time>2016-06-05T09:05:55Z</time>
      </trkpt>
      <trkpt lat="47.53632" lon="7.02787">
        <ele>456</ele>
        <time>2016-06-05T09:06:15Z</time>
      </trkpt>
      <trkpt lat="47.53645" lon="7.02809">
        <ele>455</ele>
        <time>2016-06-05T09:06:29Z</time>
      </trkpt>
      <trkpt lat="47.53639" lon="7.02815">
        <ele>454</ele>
        <time>2016-06-05T09:06:37Z</time>
      </trkpt>
      <trkpt lat="47.53641" lon="7.02839">
        <ele>458</ele>
        <time>2016-06-05T09:06:53Z</time>
      </trkpt>
      <trkpt lat="47.53641" lon="7.02871">
        <ele>462</ele>
        <time>2016-06-05T09:07:06Z</time>
      </trkpt>
      <trkpt lat="47.53637" lon="7.02896">
        <ele>465</ele>
        <time>2016-06-05T09:07:15Z</time>
      </trkpt>
      <trkpt lat="47.53637" lon="7.02896">
        <ele>465</ele>
        <time>2016-06-05T09:07:20Z</time>
      </trkpt>
      <trkpt lat="47.53632" lon="7.02906">
        <ele>461</ele>
        <time>2016-06-05T09:07:26Z</time>
      </trkpt>
      <trkpt lat="47.53631" lon="7.0294">
        <ele>469</ele>
        <time>2016-06-05T09:07:42Z</time>
      </trkpt>
      <trkpt lat="47.5362" lon="7.0296">
        <ele>464</ele>
        <time>2016-06-05T09:07:54Z</time>
      </trkpt>
      <trkpt lat="47.53614" lon="7.02972">
        <ele>459</ele>
        <time>2016-06-05T09:08:04Z</time>
      </trkpt>
      <trkpt lat="47.53615" lon="7.02973">
        <ele>461</ele>
        <time>2016-06-05T09:08:13Z</time>
      </trkpt>
      <trkpt lat="47.53606" lon="7.02997">
        <ele>466</ele>
        <time>2016-06-05T09:08:29Z</time>
      </trkpt>
      <trkpt lat="47.53596" lon="7.03023">
        <ele>467</ele>
        <time>2016-06-05T09:08:40Z</time>
      </trkpt>
      <trkpt lat="47.53588" lon="7.0304">
        <ele>464</ele>
        <time>2016-06-05T09:08:49Z</time>
      </trkpt>
      <trkpt lat="47.53583" lon="7.03055">
        <ele>460</ele>
        <time>2016-06-05T09:08:57Z</time>
      </trkpt>
      <trkpt lat="47.53586" lon="7.03073">
        <ele>458</ele>
        <time>2016-06-05T09:09:09Z</time>
      </trkpt>
      <trkpt lat="47.53591" lon="7.03093">
        <ele>458</ele>
        <time>2016-06-05T09:09:19Z</time>
      </trkpt>
      <trkpt lat="47.53598" lon="7.03122">
        <ele>458</ele>
        <time>2016-06-05T09:09:33Z</time>
      </trkpt>
      <trkpt lat="47.53594" lon="7.03129">
        <ele>459</ele>
        <time>2016-06-05T09:09:37Z</time>
      </trkpt>
      <trkpt lat="47.53594" lon="7.03134">
        <ele>457</ele>
        <time>2016-06-05T09:09:43Z</time>
      </trkpt>
      <trkpt lat="47.53589" lon="7.03164">
        <ele>452</ele>
        <time>2016-06-05T09:10:04Z</time>
      </trkpt>
      <trkpt lat="47.53589" lon="7.03183">
        <ele>451</ele>
        <time>2016-06-05T09:10:13Z</time>
      </trkpt>
      <trkpt lat="47.53589" lon="7.03203">
        <ele>452</ele>
        <time>2016-06-05T09:10:23Z</time>
      </trkpt>
      <trkpt lat="47.5359" lon="7.03207">
        <ele>454</ele>
        <time>2016-06-05T09:10:31Z</time>
      </trkpt>
      <trkpt lat="47.53588" lon="7.03235">
        <ele>460</ele>
        <time>2016-06-05T09:11:53Z</time>
      </trkpt>
      <trkpt lat="47.53582" lon="7.03246">
        <ele>459</ele>
        <time>2016-06-05T09:12:01Z</time>
      </trkpt>
      <trkpt lat="47.53576" lon="7.03284">
        <ele>455</ele>
        <time>2016-06-05T09:12:21Z</time>
      </trkpt>
      <trkpt lat="47.53568" lon="7.03313">
        <ele>458</ele>
        <time>2016-06-05T09:12:38Z</time>
      </trkpt>
      <trkpt lat="47.53561" lon="7.03345">
        <ele>459</ele>
        <time>2016-06-05T09:12:55Z</time>
      </trkpt>
      <trkpt lat="47.5355" lon="7.03368">
        <ele>460</ele>
        <time>2016-06-05T09:13:11Z</time>
      </trkpt>
      <trkpt lat="47.53558" lon="7.03384">
        <ele>460</ele>
        <time>2016-06-05T09:13:24Z</time>
      </trkpt>
      <trkpt lat="47.53573" lon="7.03389">
        <ele>461</ele>
        <time>2016-06-05T09:13:37Z</time>
      </trkpt>
      <trkpt lat="47.5358" lon="7.03401">
        <ele>454</ele>
        <time>2016-06-05T09:13:49Z</time>
      </trkpt>
      <trkpt lat="47.53593" lon="7.03418">
        <ele>454</ele>
        <time>2016-06-05T09:14:03Z</time>
      </trkpt>
      <trkpt lat="47.53596" lon="7.03464">
        <ele>449</ele>
        <time>2016-06-05T09:14:23Z</time>
      </trkpt>
      <trkpt lat="47.53598" lon="7.03498">
        <ele>450</ele>
        <time>2016-06-05T09:14:41Z</time>
      </trkpt>
      <trkpt lat="47.53597" lon="7.03531">
        <ele>450</ele>
        <time>2016-06-05T09:14:57Z</time>
      </trkpt>
      <trkpt lat="47.53597" lon="7.03549">
        <ele>449</ele>
        <time>2016-06-05T09:15:05Z</time>
      </trkpt>
      <trkpt lat="47.53598" lon="7.03576">
        <ele>448</ele>
        <time>2016-06-05T09:15:19Z</time>
      </trkpt>
      <trkpt lat="47.53597" lon="7.03605">
        <ele>449</ele>
        <time>2016-06-05T09:15:37Z</time>
      </trkpt>
      <trkpt lat="47.53608" lon="7.0363">
        <ele>452</ele>
        <time>2016-06-05T09:15:53Z</time>
      </trkpt>
      <trkpt lat="47.53628" lon="7.03651">
        <ele>455</ele>
        <time>2016-06-05T09:16:08Z</time>
      </trkpt>
      <trkpt lat="47.53641" lon="7.0367">
        <ele>456</ele>
        <time>2016-06-05T09:16:22Z</time>
      </trkpt>
      <trkpt lat="47.53646" lon="7.03681">
        <ele>457</ele>
        <time>2016-06-05T09:16:30Z</time>
      </trkpt>
      <trkpt lat="47.5365" lon="7.03694">
        <ele>457</ele>
        <time>2016-06-05T09:16:38Z</time>
      </trkpt>
      <trkpt lat="47.53665" lon="7.0372">
        <ele>453</ele>
        <time>2016-06-05T09:16:54Z</time>
      </trkpt>
      <trkpt lat="47.53679" lon="7.03745">
        <ele>453</ele>
        <time>2016-06-05T09:17:11Z</time>
      </trkpt>
      <trkpt lat="47.53681" lon="7.03765">
        <ele>453</ele>
        <time>2016-06-05T09:17:24Z</time>
      </trkpt>
      <trkpt lat="47.53681" lon="7.03792">
        <ele>450</ele>
        <time>2016-06-05T09:17:37Z</time>
      </trkpt>
      <trkpt lat="47.53678" lon="7.03818">
        <ele>452</ele>
        <time>2016-06-05T09:17:49Z</time>
      </trkpt>
      <trkpt lat="47.53678" lon="7.03839">
        <ele>454</ele>
        <time>2016-06-05T09:18:00Z</time>
      </trkpt>
      <trkpt lat="47.53679" lon="7.03866">
        <ele>456</ele>
        <time>2016-06-05T09:18:13Z</time>
      </trkpt>
      <trkpt lat="47.53679" lon="7.03866">
        <ele>456</ele>
        <time>2016-06-05T09:18:18Z</time>
      </trkpt>
      <trkpt lat="47.53679" lon="7.03866">
        <ele>456</ele>
        <time>2016-06-05T09:18:19Z</time>
      </trkpt>
      <trkpt lat="47.53677" lon="7.03906">
        <ele>452</ele>
        <time>2016-06-05T09:18:50Z</time>
      </trkpt>
      <trkpt lat="47.5368" lon="7.03924">
        <ele>450</ele>
        <time>2016-06-05T09:18:59Z</time>
      </trkpt>
      <trkpt lat="47.53685" lon="7.0394">
        <ele>450</ele>
        <time>2016-06-05T09:19:07Z</time>
      </trkpt>
      <trkpt lat="47.53687" lon="7.03963">
        <ele>450</ele>
        <time>2016-06-05T09:19:20Z</time>
      </trkpt>
      <trkpt lat="47.53696" lon="7.03988">
        <ele>456</ele>
        <time>2016-06-05T09:19:35Z</time>
      </trkpt>
      <trkpt lat="47.537" lon="7.04008">
        <ele>460</ele>
        <time>2016-06-05T09:19:45Z</time>
      </trkpt>
      <trkpt lat="47.53708" lon="7.04031">
        <ele>464</ele>
        <time>2016-06-05T09:19:58Z</time>
      </trkpt>
      <trkpt lat="47.53723" lon="7.04046">
        <ele>459</ele>
        <time>2016-06-05T09:20:15Z</time>
      </trkpt>
      <trkpt lat="47.53749" lon="7.04059">
        <ele>457</ele>
        <time>2016-06-05T09:20:34Z</time>
      </trkpt>
      <trkpt lat="47.53762" lon="7.04067">
        <ele>455</ele>
        <time>2016-06-05T09:20:44Z</time>
      </trkpt>
      <trkpt lat="47.5378" lon="7.0408">
        <ele>454</ele>
        <time>2016-06-05T09:20:57Z</time>
      </trkpt>
      <trkpt lat="47.53786" lon="7.041">
        <ele>458</ele>
        <time>2016-06-05T09:21:08Z</time>
      </trkpt>
      <trkpt lat="47.53803" lon="7.04113">
        <ele>462</ele>
        <time>2016-06-05T09:21:22Z</time>
      </trkpt>
      <trkpt lat="47.53829" lon="7.04114">
        <ele>451</ele>
        <time>2016-06-05T09:21:37Z</time>
      </trkpt>
      <trkpt lat="47.53839" lon="7.04132">
        <ele>450</ele>
        <time>2016-06-05T09:21:49Z</time>
      </trkpt>
      <trkpt lat="47.53844" lon="7.04153">
        <ele>453</ele>
        <time>2016-06-05T09:22:00Z</time>
      </trkpt>
      <trkpt lat="47.53856" lon="7.0417">
        <ele>456</ele>
        <time>2016-06-05T09:22:11Z</time>
      </trkpt>
      <trkpt lat="47.53873" lon="7.04186">
        <ele>456</ele>
        <time>2016-06-05T09:22:24Z</time>
      </trkpt>
      <trkpt lat="47.53888" lon="7.04201">
        <ele>450</ele>
        <time>2016-06-05T09:22:40Z</time>
      </trkpt>
      <trkpt lat="47.53909" lon="7.04211">
        <ele>453</ele>
        <time>2016-06-05T09:22:57Z</time>
      </trkpt>
      <trkpt lat="47.53931" lon="7.04217">
        <ele>456</ele>
        <time>2016-06-05T09:23:14Z</time>
      </trkpt>
      <trkpt lat="47.53951" lon="7.04216">
        <ele>456</ele>
        <time>2016-06-05T09:23:30Z</time>
      </trkpt>
      <trkpt lat="47.5396" lon="7.0421">
        <ele>458</ele>
        <time>2016-06-05T09:23:39Z</time>
      </trkpt>
      <trkpt lat="47.53982" lon="7.04205">
        <ele>458</ele>
        <time>2016-06-05T09:23:53Z</time>
      </trkpt>
      <trkpt lat="47.53996" lon="7.04198">
        <ele>466</ele>
        <time>2016-06-05T09:24:06Z</time>
      </trkpt>
      <trkpt lat="47.54022" lon="7.04194">
        <ele>463</ele>
        <time>2016-06-05T09:24:23Z</time>
      </trkpt>
      <trkpt lat="47.54034" lon="7.04199">
        <ele>458</ele>
        <time>2016-06-05T09:24:29Z</time>
      </trkpt>
      <trkpt lat="47.54045" lon="7.04195">
        <ele>462</ele>
        <time>2016-06-05T09:24:39Z</time>
      </trkpt>
      <trkpt lat="47.54057" lon="7.04201">
        <ele>461</ele>
        <time>2016-06-05T09:24:47Z</time>
      </trkpt>
      <trkpt lat="47.54071" lon="7.04196">
        <ele>458</ele>
        <time>2016-06-05T09:24:56Z</time>
      </trkpt>
      <trkpt lat="47.54088" lon="7.04206">
        <ele>454</ele>
        <time>2016-06-05T09:25:10Z</time>
      </trkpt>
      <trkpt lat="47.54108" lon="7.042">
        <ele>456</ele>
        <time>2016-06-05T09:25:23Z</time>
      </trkpt>
      <trkpt lat="47.54115" lon="7.04205">
        <ele>458</ele>
        <time>2016-06-05T09:25:29Z</time>
      </trkpt>
      <trkpt lat="47.54115" lon="7.04205">
        <ele>458</ele>
        <time>2016-06-05T09:25:34Z</time>
      </trkpt>
      <trkpt lat="47.54125" lon="7.04206">
        <ele>463</ele>
        <time>2016-06-05T09:25:38Z</time>
      </trkpt>
      <trkpt lat="47.5414" lon="7.04212">
        <ele>461</ele>
        <time>2016-06-05T09:25:49Z</time>
      </trkpt>
      <trkpt lat="47.54154" lon="7.0422">
        <ele>458</ele>
        <time>2016-06-05T09:26:00Z</time>
      </trkpt>
      <trkpt lat="47.54169" lon="7.04211">
        <ele>459</ele>
        <time>2016-06-05T09:26:10Z</time>
      </trkpt>
      <trkpt lat="47.54183" lon="7.04219">
        <ele>456</ele>
        <time>2016-06-05T09:26:22Z</time>
      </trkpt>
      <trkpt lat="47.54196" lon="7.04225">
        <ele>456</ele>
        <time>2016-06-05T09:26:37Z</time>
      </trkpt>
      <trkpt lat="47.5422" lon="7.04229">
        <ele>453</ele>
        <time>2016-06-05T09:26:54Z</time>
      </trkpt>
      <trkpt lat="47.54233" lon="7.04223">
        <ele>458</ele>
        <time>2016-06-05T09:27:04Z</time>
      </trkpt>
      <trkpt lat="47.54254" lon="7.04223">
        <ele>457</ele>
        <time>2016-06-05T09:27:21Z</time>
      </trkpt>
      <trkpt lat="47.54269" lon="7.04225">
        <ele>459</ele>
        <time>2016-06-05T09:27:30Z</time>
      </trkpt>
      <trkpt lat="47.5428" lon="7.04223">
        <ele>456</ele>
        <time>2016-06-05T09:27:37Z</time>
      </trkpt>
      <trkpt lat="47.54294" lon="7.04223">
        <ele>458</ele>
        <time>2016-06-05T09:27:47Z</time>
      </trkpt>
      <trkpt lat="47.54312" lon="7.04225">
        <ele>458</ele>
        <time>2016-06-05T09:28:01Z</time>
      </trkpt>
      <trkpt lat="47.54321" lon="7.04217">
        <ele>458</ele>
        <time>2016-06-05T09:28:12Z</time>
      </trkpt>
      <trkpt lat="47.54339" lon="7.04218">
        <ele>457</ele>
        <time>2016-06-05T09:28:25Z</time>
      </trkpt>
      <trkpt lat="47.54363" lon="7.04217">
        <ele>449</ele>
        <time>2016-06-05T09:28:42Z</time>
      </trkpt>
      <trkpt lat="47.54376" lon="7.04212">
        <ele>455</ele>
        <time>2016-06-05T09:28:56Z</time>
      </trkpt>
      <trkpt lat="47.54386" lon="7.04208">
        <ele>452</ele>
        <time>2016-06-05T09:29:05Z</time>
      </trkpt>
      <trkpt lat="47.54412" lon="7.04212">
        <ele>451</ele>
        <time>2016-06-05T09:29:24Z</time>
      </trkpt>
      <trkpt lat="47.54421" lon="7.04198">
        <ele>455</ele>
        <time>2016-06-05T09:29:33Z</time>
      </trkpt>
      <trkpt lat="47.54433" lon="7.04184">
        <ele>455</ele>
        <time>2016-06-05T09:29:44Z</time>
      </trkpt>
      <trkpt lat="47.54441" lon="7.04165">
        <ele>459</ele>
        <time>2016-06-05T09:29:52Z</time>
      </trkpt>
      <trkpt lat="47.54441" lon="7.04165">
        <ele>459</ele>
        <time>2016-06-05T09:29:57Z</time>
      </trkpt>
      <trkpt lat="47.54443" lon="7.04152">
        <ele>457</ele>
        <time>2016-06-05T09:30:03Z</time>
      </trkpt>
      <trkpt lat="47.54439" lon="7.0413">
        <ele>458</ele>
        <time>2016-06-05T09:30:15Z</time>
      </trkpt>
      <trkpt lat="47.54435" lon="7.04118">
        <ele>456</ele>
        <time>2016-06-05T09:30:23Z</time>
      </trkpt>
      <trkpt lat="47.54434" lon="7.04111">
        <ele>454</ele>
        <time>2016-06-05T09:30:27Z</time>
      </trkpt>
      <trkpt lat="47.54427" lon="7.04093">
        <ele>452</ele>
        <time>2016-06-05T09:30:38Z</time>
      </trkpt>
      <trkpt lat="47.54421" lon="7.04081">
        <ele>449</ele>
        <time>2016-06-05T09:30:48Z</time>
      </trkpt>
      <trkpt lat="47.54413" lon="7.04063">
        <ele>450</ele>
        <time>2016-06-05T09:30:58Z</time>
      </trkpt>
      <trkpt lat="47.54408" lon="7.04042">
        <ele>449</ele>
        <time>2016-06-05T09:31:09Z</time>
      </trkpt>
      <trkpt lat="47.54397" lon="7.04015">
        <ele>452</ele>
        <time>2016-06-05T09:31:22Z</time>
      </trkpt>
      <trkpt lat="47.54388" lon="7.03993">
        <ele>447</ele>
        <time>2016-06-05T09:31:40Z</time>
      </trkpt>
      <trkpt lat="47.54372" lon="7.03949">
        <ele>449</ele>
        <time>2016-06-05T09:31:58Z</time>
      </trkpt>
      <trkpt lat="47.54366" lon="7.0393">
        <ele>444</ele>
        <time>2016-06-05T09:32:12Z</time>
      </trkpt>
      <trkpt lat="47.54359" lon="7.03895">
        <ele>445</ele>
        <time>2016-06-05T09:32:32Z</time>
      </trkpt>
      <trkpt lat="47.54359" lon="7.0389">
        <ele>444</ele>
        <time>2016-06-05T09:32:36Z</time>
      </trkpt>
      <trkpt lat="47.54359" lon="7.03879">
        <ele>443</ele>
        <time>2016-06-05T09:32:50Z</time>
      </trkpt>
      <trkpt lat="47.54344" lon="7.03845">
        <ele>441</ele>
        <time>2016-06-05T09:33:10Z</time>
      </trkpt>
      <trkpt lat="47.5434" lon="7.03829">
        <ele>438</ele>
        <time>2016-06-05T09:33:23Z</time>
      </trkpt>
      <trkpt lat="47.54333" lon="7.03802">
        <ele>442</ele>
        <time>2016-06-05T09:33:48Z</time>
      </trkpt>
      <trkpt lat="47.54325" lon="7.03791">
        <ele>443</ele>
        <time>2016-06-05T09:33:54Z</time>
      </trkpt>
      <trkpt lat="47.5432" lon="7.03769">
        <ele>439</ele>
        <time>2016-06-05T09:34:09Z</time>
      </trkpt>
      <trkpt lat="47.54321" lon="7.03756">
        <ele>437</ele>
        <time>2016-06-05T09:34:19Z</time>
      </trkpt>
      <trkpt lat="47.54312" lon="7.03738">
        <ele>441</ele>
        <time>2016-06-05T09:34:33Z</time>
      </trkpt>
      <trkpt lat="47.54303" lon="7.0372">
        <ele>441</ele>
        <time>2016-06-05T09:34:46Z</time>
      </trkpt>
      <trkpt lat="47.54285" lon="7.03702">
        <ele>442</ele>
        <time>2016-06-05T09:34:58Z</time>
      </trkpt>
      <trkpt lat="47.54274" lon="7.03683">
        <ele>445</ele>
        <time>2016-06-05T09:35:11Z</time>
      </trkpt>
      <trkpt lat="47.54265" lon="7.03672">
        <ele>447</ele>
        <time>2016-06-05T09:35:21Z</time>
      </trkpt>
      <trkpt lat="47.54253" lon="7.03667">
        <ele>450</ele>
        <time>2016-06-05T09:35:34Z</time>
      </trkpt>
      <trkpt lat="47.5424" lon="7.03661">
        <ele>452</ele>
        <time>2016-06-05T09:35:45Z</time>
      </trkpt>
      <trkpt lat="47.54219" lon="7.03649">
        <ele>452</ele>
        <time>2016-06-05T09:36:01Z</time>
      </trkpt>
      <trkpt lat="47.54201" lon="7.0364">
        <ele>453</ele>
        <time>2016-06-05T09:36:17Z</time>
      </trkpt>
      <trkpt lat="47.54185" lon="7.03634">
        <ele>455</ele>
        <time>2016-06-05T09:36:31Z</time>
      </trkpt>
      <trkpt lat="47.54173" lon="7.0363">
        <ele>458</ele>
        <time>2016-06-05T09:36:40Z</time>
      </trkpt>
      <trkpt lat="47.54154" lon="7.03625">
        <ele>458</ele>
        <time>2016-06-05T09:36:56Z</time>
      </trkpt>
      <trkpt lat="47.54131" lon="7.03618">
        <ele>456</ele>
        <time>2016-06-05T09:37:13Z</time>
      </trkpt>
      <trkpt lat="47.54125" lon="7.03615">
        <ele>454</ele>
        <time>2016-06-05T09:37:16Z</time>
      </trkpt>
      <trkpt lat="47.54116" lon="7.03618">
        <ele>453</ele>
        <time>2016-06-05T09:37:29Z</time>
      </trkpt>
      <trkpt lat="47.54097" lon="7.03609">
        <ele>451</ele>
        <time>2016-06-05T09:37:41Z</time>
      </trkpt>
      <trkpt lat="47.54087" lon="7.03604">
        <ele>452</ele>
        <time>2016-06-05T09:37:48Z</time>
      </trkpt>
      <trkpt lat="47.54076" lon="7.03603">
        <ele>455</ele>
        <time>2016-06-05T09:37:59Z</time>
      </trkpt>
      <trkpt lat="47.5406" lon="7.036">
        <ele>458</ele>
        <time>2016-06-05T09:38:09Z</time>
      </trkpt>
      <trkpt lat="47.54045" lon="7.03596">
        <ele>459</ele>
        <time>2016-06-05T09:38:16Z</time>
      </trkpt>
      <trkpt lat="47.54035" lon="7.03602">
        <ele>461</ele>
        <time>2016-06-05T09:38:26Z</time>
      </trkpt>
      <trkpt lat="47.54035" lon="7.03602">
        <ele>461</ele>
        <time>2016-06-05T09:38:31Z</time>
      </trkpt>
      <trkpt lat="47.54035" lon="7.03602">
        <ele>461</ele>
        <time>2016-06-05T09:38:32Z</time>
      </trkpt>
      <trkpt lat="47.54021" lon="7.03586">
        <ele>459</ele>
        <time>2016-06-05T09:38:42Z</time>
      </trkpt>
      <trkpt lat="47.54011" lon="7.03583">
        <ele>460</ele>
        <time>2016-06-05T09:38:48Z</time>
      </trkpt>
      <trkpt lat="47.54002" lon="7.03585">
        <ele>447</ele>
        <time>2016-06-05T09:38:58Z</time>
      </trkpt>
      <trkpt lat="47.53992" lon="7.03581">
        <ele>449</ele>
        <time>2016-06-05T09:39:05Z</time>
      </trkpt>
      <trkpt lat="47.5398" lon="7.03567">
        <ele>446</ele>
        <time>2016-06-05T09:39:19Z</time>
      </trkpt>
      <trkpt lat="47.53978" lon="7.0355">
        <ele>446</ele>
        <time>2016-06-05T09:39:28Z</time>
      </trkpt>
      <trkpt lat="47.53978" lon="7.0355">
        <ele>446</ele>
        <time>2016-06-05T09:39:35Z</time>
      </trkpt>
      <trkpt lat="47.53978" lon="7.0355">
        <ele>446</ele>
        <time>2016-06-05T09:39:36Z</time>
      </trkpt>
      <trkpt lat="47.53967" lon="7.03536">
        <ele>447</ele>
        <time>2016-06-05T09:39:52Z</time>
      </trkpt>
      <trkpt lat="47.53964" lon="7.0352">
        <ele>448</ele>
        <time>2016-06-05T09:39:59Z</time>
      </trkpt>
      <trkpt lat="47.53954" lon="7.03495">
        <ele>454</ele>
        <time>2016-06-05T09:40:13Z</time>
      </trkpt>
      <trkpt lat="47.53945" lon="7.03473">
        <ele>457</ele>
        <time>2016-06-05T09:40:26Z</time>
      </trkpt>
      <trkpt lat="47.53943" lon="7.0345">
        <ele>453</ele>
        <time>2016-06-05T09:40:40Z</time>
      </trkpt>
      <trkpt lat="47.53935" lon="7.0342">
        <ele>456</ele>
        <time>2016-06-05T09:40:54Z</time>
      </trkpt>
      <trkpt lat="47.53931" lon="7.03395">
        <ele>456</ele>
        <time>2016-06-05T09:41:04Z</time>
      </trkpt>
      <trkpt lat="47.53931" lon="7.03395">
        <ele>456</ele>
        <time>2016-06-05T09:41:09Z</time>
      </trkpt>
      <trkpt lat="47.53931" lon="7.03395">
        <ele>456</ele>
        <time>2016-06-05T09:41:10Z</time>
      </trkpt>
      <trkpt lat="47.53926" lon="7.0337">
        <ele>457</ele>
        <time>2016-06-05T09:41:27Z</time>
      </trkpt>
      <trkpt lat="47.53918" lon="7.0335">
        <ele>459</ele>
        <time>2016-06-05T09:41:39Z</time>
      </trkpt>
      <trkpt lat="47.53911" lon="7.03323">
        <ele>458</ele>
        <time>2016-06-05T09:41:53Z</time>
      </trkpt>
      <trkpt lat="47.53898" lon="7.03298">
        <ele>457</ele>
        <time>2016-06-05T09:42:09Z</time>
      </trkpt>
      <trkpt lat="47.53894" lon="7.03275">
        <ele>455</ele>
        <time>2016-06-05T09:42:19Z</time>
      </trkpt>
      <trkpt lat="47.53884" lon="7.03256">
        <ele>458</ele>
        <time>2016-06-05T09:42:27Z</time>
      </trkpt>
      <trkpt lat="47.53884" lon="7.03256">
        <ele>458</ele>
        <time>2016-06-05T09:42:32Z</time>
      </trkpt>
      <trkpt lat="47.53885" lon="7.03241">
        <ele>455</ele>
        <time>2016-06-05T09:42:36Z</time>
      </trkpt>
      <trkpt lat="47.53877" lon="7.03222">
        <ele>453</ele>
        <time>2016-06-05T09:42:48Z</time>
      </trkpt>
      <trkpt lat="47.53883" lon="7.03187">
        <ele>456</ele>
        <time>2016-06-05T09:43:08Z</time>
      </trkpt>
      <trkpt lat="47.539" lon="7.03177">
        <ele>453</ele>
        <time>2016-06-05T09:43:23Z</time>
      </trkpt>
      <trkpt lat="47.53919" lon="7.03163">
        <ele>453</ele>
        <time>2016-06-05T09:43:40Z</time>
      </trkpt>
      <trkpt lat="47.53933" lon="7.03149">
        <ele>451</ele>
        <time>2016-06-05T09:43:55Z</time>
      </trkpt>
      <trkpt lat="47.53948" lon="7.03133">
        <ele>452</ele>
        <time>2016-06-05T09:44:10Z</time>
      </trkpt>
      <trkpt lat="47.53968" lon="7.03124">
        <ele>448</ele>
        <time>2016-06-05T09:44:29Z</time>
      </trkpt>
      <trkpt lat="47.53982" lon="7.03109">
        <ele>446</ele>
        <time>2016-06-05T09:44:44Z</time>
      </trkpt>
      <trkpt lat="47.53998" lon="7.03095">
        <ele>441</ele>
        <time>2016-06-05T09:45:01Z</time>
      </trkpt>
      <trkpt lat="47.54013" lon="7.03084">
        <ele>438</ele>
        <time>2016-06-05T09:45:14Z</time>
      </trkpt>
      <trkpt lat="47.54027" lon="7.03074">
        <ele>438</ele>
        <time>2016-06-05T09:45:30Z</time>
      </trkpt>
      <trkpt lat="47.54043" lon="7.03065">
        <ele>433</ele>
        <time>2016-06-05T09:45:47Z</time>
      </trkpt>
      <trkpt lat="47.54055" lon="7.03055">
        <ele>434</ele>
        <time>2016-06-05T09:45:57Z</time>
      </trkpt>
      <trkpt lat="47.54072" lon="7.03039">
        <ele>439</ele>
        <time>2016-06-05T09:46:11Z</time>
      </trkpt>
      <trkpt lat="47.54085" lon="7.03027">
        <ele>444</ele>
        <time>2016-06-05T09:46:22Z</time>
      </trkpt>
      <trkpt lat="47.54102" lon="7.03013">
        <ele>447</ele>
        <time>2016-06-05T09:46:35Z</time>
      </trkpt>
      <trkpt lat="47.54115" lon="7.02994">
        <ele>445</ele>
        <time>2016-06-05T09:46:51Z</time>
      </trkpt>
      <trkpt lat="47.54128" lon="7.02974">
        <ele>447</ele>
        <time>2016-06-05T09:47:04Z</time>
      </trkpt>
      <trkpt lat="47.54141" lon="7.02963">
        <ele>448</ele>
        <time>2016-06-05T09:47:16Z</time>
      </trkpt>
      <trkpt lat="47.54155" lon="7.02947">
        <ele>448</ele>
        <time>2016-06-05T09:47:31Z</time>
      </trkpt>
      <trkpt lat="47.54177" lon="7.02938">
        <ele>450</ele>
        <time>2016-06-05T09:47:50Z</time>
      </trkpt>
      <trkpt lat="47.54194" lon="7.02927">
        <ele>451</ele>
        <time>2016-06-05T09:48:05Z</time>
      </trkpt>
      <trkpt lat="47.54209" lon="7.02918">
        <ele>450</ele>
        <time>2016-06-05T09:48:20Z</time>
      </trkpt>
      <trkpt lat="47.54207" lon="7.02892">
        <ele>450</ele>
        <time>2016-06-05T09:48:36Z</time>
      </trkpt>
      <trkpt lat="47.54207" lon="7.02872">
        <ele>449</ele>
        <time>2016-06-05T09:48:53Z</time>
      </trkpt>
      <trkpt lat="47.542" lon="7.02849">
        <ele>448</ele>
        <time>2016-06-05T09:49:05Z</time>
      </trkpt>
      <trkpt lat="47.542" lon="7.02842">
        <ele>444</ele>
        <time>2016-06-05T09:49:10Z</time>
      </trkpt>
      <trkpt lat="47.54197" lon="7.02839">
        <ele>446</ele>
        <time>2016-06-05T09:49:18Z</time>
      </trkpt>
      <trkpt lat="47.54186" lon="7.02799">
        <ele>443</ele>
        <time>2016-06-05T09:50:07Z</time>
      </trkpt>
      <trkpt lat="47.54199" lon="7.02779">
        <ele>447</ele>
        <time>2016-06-05T09:50:25Z</time>
      </trkpt>
      <trkpt lat="47.54228" lon="7.02761">
        <ele>447</ele>
        <time>2016-06-05T09:51:18Z</time>
      </trkpt>
      <trkpt lat="47.54243" lon="7.02757">
        <ele>442</ele>
        <time>2016-06-05T09:51:32Z</time>
      </trkpt>
      <trkpt lat="47.54257" lon="7.02746">
        <ele>446</ele>
        <time>2016-06-05T09:51:41Z</time>
      </trkpt>
      <trkpt lat="47.54272" lon="7.02738">
        <ele>447</ele>
        <time>2016-06-05T09:51:51Z</time>
      </trkpt>
      <trkpt lat="47.54272" lon="7.02738">
        <ele>447</ele>
        <time>2016-06-05T09:51:56Z</time>
      </trkpt>
      <trkpt lat="47.54272" lon="7.02738">
        <ele>447</ele>
        <time>2016-06-05T09:51:57Z</time>
      </trkpt>
      <trkpt lat="47.54287" lon="7.02736">
        <ele>448</ele>
        <time>2016-06-05T09:52:36Z</time>
      </trkpt>
      <trkpt lat="47.5429" lon="7.02729">
        <ele>452</ele>
        <time>2016-06-05T09:52:40Z</time>
      </trkpt>
      <trkpt lat="47.54294" lon="7.02719">
        <ele>457</ele>
        <time>2016-06-05T09:52:52Z</time>
      </trkpt>
      <trkpt lat="47.54294" lon="7.02719">
        <ele>457</ele>
        <time>2016-06-05T09:52:59Z</time>
      </trkpt>
      <trkpt lat="47.54294" lon="7.02719">
        <ele>457</ele>
        <time>2016-06-05T09:53:00Z</time>
      </trkpt>
      <trkpt lat="47.54307" lon="7.02717">
        <ele>456</ele>
        <time>2016-06-05T09:53:15Z</time>
      </trkpt>
      <trkpt lat="47.54307" lon="7.02717">
        <ele>456</ele>
        <time>2016-06-05T09:53:20Z</time>
      </trkpt>
      <trkpt lat="47.54307" lon="7.02717">
        <ele>456</ele>
        <time>2016-06-05T09:53:21Z</time>
      </trkpt>
      <trkpt lat="47.54301" lon="7.02698">
        <ele>454</ele>
        <time>2016-06-05T09:53:35Z</time>
      </trkpt>
      <trkpt lat="47.54306" lon="7.02683">
        <ele>449</ele>
        <time>2016-06-05T09:53:45Z</time>
      </trkpt>
      <trkpt lat="47.54306" lon="7.02683">
        <ele>449</ele>
        <time>2016-06-05T09:53:52Z</time>
      </trkpt>
      <trkpt lat="47.54306" lon="7.02683">
        <ele>449</ele>
        <time>2016-06-05T09:53:53Z</time>
      </trkpt>
      <trkpt lat="47.54304" lon="7.0265">
        <ele>443</ele>
        <time>2016-06-05T09:54:32Z</time>
      </trkpt>
      <trkpt lat="47.54299" lon="7.02632">
        <ele>444</ele>
        <time>2016-06-05T09:54:44Z</time>
      </trkpt>
      <trkpt lat="47.54297" lon="7.02605">
        <ele>441</ele>
        <time>2016-06-05T09:54:59Z</time>
      </trkpt>
      <trkpt lat="47.54298" lon="7.02586">
        <ele>446</ele>
        <time>2016-06-05T09:55:16Z</time>
      </trkpt>
      <trkpt lat="47.54311" lon="7.02574">
        <ele>443</ele>
        <time>2016-06-05T09:55:27Z</time>
      </trkpt>
      <trkpt lat="47.54319" lon="7.02569">
        <ele>440</ele>
        <time>2016-06-05T09:55:39Z</time>
      </trkpt>
      <trkpt lat="47.54336" lon="7.0256">
        <ele>440</ele>
        <time>2016-06-05T09:55:54Z</time>
      </trkpt>
      <trkpt lat="47.54346" lon="7.02557">
        <ele>440</ele>
        <time>2016-06-05T09:56:08Z</time>
      </trkpt>
      <trkpt lat="47.54364" lon="7.02539">
        <ele>437</ele>
        <time>2016-06-05T09:56:25Z</time>
      </trkpt>
      <trkpt lat="47.54365" lon="7.02519">
        <ele>440</ele>
        <time>2016-06-05T09:56:35Z</time>
      </trkpt>
      <trkpt lat="47.54364" lon="7.02499">
        <ele>441</ele>
        <time>2016-06-05T09:56:47Z</time>
      </trkpt>
      <trkpt lat="47.54355" lon="7.02476">
        <ele>441</ele>
        <time>2016-06-05T09:57:00Z</time>
      </trkpt>
      <trkpt lat="47.54353" lon="7.02448">
        <ele>442</ele>
        <time>2016-06-05T09:57:16Z</time>
      </trkpt>
      <trkpt lat="47.54361" lon="7.02428">
        <ele>443</ele>
        <time>2016-06-05T09:57:29Z</time>
      </trkpt>
      <trkpt lat="47.54365" lon="7.02397">
        <ele>443</ele>
        <time>2016-06-05T09:57:45Z</time>
      </trkpt>
      <trkpt lat="47.54367" lon="7.0239">
        <ele>441</ele>
        <time>2016-06-05T09:57:54Z</time>
      </trkpt>
      <trkpt lat="47.5437" lon="7.02394">
        <ele>438</ele>
        <time>2016-06-05T09:58:02Z</time>
      </trkpt>
      <trkpt lat="47.54391" lon="7.0237">
        <ele>444</ele>
        <time>2016-06-05T09:58:33Z</time>
      </trkpt>
      <trkpt lat="47.54391" lon="7.02361">
        <ele>444</ele>
        <time>2016-06-05T09:58:35Z</time>
      </trkpt>
      <trkpt lat="47.5439" lon="7.02362">
        <ele>444</ele>
        <time>2016-06-05T09:58:44Z</time>
      </trkpt>
      <trkpt lat="47.54384" lon="7.02281">
        <ele>448</ele>
        <time>2016-06-05T09:59:41Z</time>
      </trkpt>
      <trkpt lat="47.54379" lon="7.02263">
        <ele>456</ele>
        <time>2016-06-05T09:59:47Z</time>
      </trkpt>
      <trkpt lat="47.5438" lon="7.02247">
        <ele>456</ele>
        <time>2016-06-05T09:59:54Z</time>
      </trkpt>
      <trkpt lat="47.54377" lon="7.02229">
        <ele>455</ele>
        <time>2016-06-05T10:00:05Z</time>
      </trkpt>
      <trkpt lat="47.54377" lon="7.02221">
        <ele>455</ele>
        <time>2016-06-05T10:00:09Z</time>
      </trkpt>
      <trkpt lat="47.54376" lon="7.02207">
        <ele>453</ele>
        <time>2016-06-05T10:00:19Z</time>
      </trkpt>
      <trkpt lat="47.54379" lon="7.02183">
        <ele>451</ele>
        <time>2016-06-05T10:00:31Z</time>
      </trkpt>
      <trkpt lat="47.54378" lon="7.02149">
        <ele>450</ele>
        <time>2016-06-05T10:00:48Z</time>
      </trkpt>
      <trkpt lat="47.54385" lon="7.02125">
        <ele>449</ele>
        <time>2016-06-05T10:01:05Z</time>
      </trkpt>
      <trkpt lat="47.54392" lon="7.02096">
        <ele>451</ele>
        <time>2016-06-05T10:01:24Z</time>
      </trkpt>
      <trkpt lat="47.54403" lon="7.02061">
        <ele>451</ele>
        <time>2016-06-05T10:01:40Z</time>
      </trkpt>
      <trkpt lat="47.54404" lon="7.02037">
        <ele>453</ele>
        <time>2016-06-05T10:01:50Z</time>
      </trkpt>
      <trkpt lat="47.54404" lon="7.02015">
        <ele>454</ele>
        <time>2016-06-05T10:02:03Z</time>
      </trkpt>
      <trkpt lat="47.54411" lon="7.02003">
        <ele>450</ele>
        <time>2016-06-05T10:02:15Z</time>
      </trkpt>
      <trkpt lat="47.54416" lon="7.0198">
        <ele>452</ele>
        <time>2016-06-05T10:02:32Z</time>
      </trkpt>
      <trkpt lat="47.54422" lon="7.01964">
        <ele>449</ele>
        <time>2016-06-05T10:02:46Z</time>
      </trkpt>
      <trkpt lat="47.54424" lon="7.0194">
        <ele>451</ele>
        <time>2016-06-05T10:02:56Z</time>
      </trkpt>
      <trkpt lat="47.54425" lon="7.01926">
        <ele>454</ele>
        <time>2016-06-05T10:03:07Z</time>
      </trkpt>
      <trkpt lat="47.54425" lon="7.01926">
        <ele>454</ele>
        <time>2016-06-05T10:03:15Z</time>
      </trkpt>
      <trkpt lat="47.54425" lon="7.01926">
        <ele>454</ele>
        <time>2016-06-05T10:03:16Z</time>
      </trkpt>
      <trkpt lat="47.5442" lon="7.01885">
        <ele>452</ele>
        <time>2016-06-05T10:04:11Z</time>
      </trkpt>
      <trkpt lat="47.54398" lon="7.01855">
        <ele>450</ele>
        <time>2016-06-05T10:05:08Z</time>
      </trkpt>
      <trkpt lat="47.54388" lon="7.01839">
        <ele>449</ele>
        <time>2016-06-05T10:05:16Z</time>
      </trkpt>
      <trkpt lat="47.54389" lon="7.01837">
        <ele>450</ele>
        <time>2016-06-05T10:05:24Z</time>
      </trkpt>
      <trkpt lat="47.54403" lon="7.01815">
        <ele>448</ele>
        <time>2016-06-05T10:07:59Z</time>
      </trkpt>
      <trkpt lat="47.54413" lon="7.01808">
        <ele>443</ele>
        <time>2016-06-05T10:08:05Z</time>
      </trkpt>
      <trkpt lat="47.54411" lon="7.01793">
        <ele>447</ele>
        <time>2016-06-05T10:08:13Z</time>
      </trkpt>
      <trkpt lat="47.54411" lon="7.01793">
        <ele>447</ele>
        <time>2016-06-05T10:08:18Z</time>
      </trkpt>
      <trkpt lat="47.5441" lon="7.01772">
        <ele>445</ele>
        <time>2016-06-05T10:08:23Z</time>
      </trkpt>
      <trkpt lat="47.54404" lon="7.01755">
        <ele>446</ele>
        <time>2016-06-05T10:08:32Z</time>
      </trkpt>
      <trkpt lat="47.54404" lon="7.01755">
        <ele>446</ele>
        <time>2016-06-05T10:08:38Z</time>
      </trkpt>
      <trkpt lat="47.54404" lon="7.01755">
        <ele>446</ele>
        <time>2016-06-05T10:08:39Z</time>
      </trkpt>
      <trkpt lat="47.54396" lon="7.01728">
        <ele>445</ele>
        <time>2016-06-05T10:08:54Z</time>
      </trkpt>
      <trkpt lat="47.54379" lon="7.01709">
        <ele>443</ele>
        <time>2016-06-05T10:09:12Z</time>
      </trkpt>
      <trkpt lat="47.5437" lon="7.01693">
        <ele>440</ele>
        <time>2016-06-05T10:09:24Z</time>
      </trkpt>
      <trkpt lat="47.54353" lon="7.01702">
        <ele>442</ele>
        <time>2016-06-05T10:09:40Z</time>
      </trkpt>
      <trkpt lat="47.54353" lon="7.01702">
        <ele>442</ele>
        <time>2016-06-05T10:09:49Z</time>
      </trkpt>
      <trkpt lat="47.54353" lon="7.01702">
        <ele>442</ele>
        <time>2016-06-05T10:09:50Z</time>
      </trkpt>
      <trkpt lat="47.54344" lon="7.01677">
        <ele>433</ele>
        <time>2016-06-05T10:10:27Z</time>
      </trkpt>
      <trkpt lat="47.54339" lon="7.01662">
        <ele>437</ele>
        <time>2016-06-05T10:10:32Z</time>
      </trkpt>
      <trkpt lat="47.54332" lon="7.01643">
        <ele>441</ele>
        <time>2016-06-05T10:10:44Z</time>
      </trkpt>
      <trkpt lat="47.54321" lon="7.01612">
        <ele>444</ele>
        <time>2016-06-05T10:11:01Z</time>
      </trkpt>
      <trkpt lat="47.54319" lon="7.01579">
        <ele>440</ele>
        <time>2016-06-05T10:11:13Z</time>
      </trkpt>
      <trkpt lat="47.54297" lon="7.01557">
        <ele>451</ele>
        <time>2016-06-05T10:11:25Z</time>
      </trkpt>
      <trkpt lat="47.5429" lon="7.01546">
        <ele>451</ele>
        <time>2016-06-05T10:11:36Z</time>
      </trkpt>
      <trkpt lat="47.54277" lon="7.01518">
        <ele>451</ele>
        <time>2016-06-05T10:11:55Z</time>
      </trkpt>
      <trkpt lat="47.54262" lon="7.01491">
        <ele>447</ele>
        <time>2016-06-05T10:12:09Z</time>
      </trkpt>
      <trkpt lat="47.54261" lon="7.01476">
        <ele>448</ele>
        <time>2016-06-05T10:12:16Z</time>
      </trkpt>
      <trkpt lat="47.54259" lon="7.01465">
        <ele>443</ele>
        <time>2016-06-05T10:12:27Z</time>
      </trkpt>
      <trkpt lat="47.54255" lon="7.0146">
        <ele>442</ele>
        <time>2016-06-05T10:12:32Z</time>
      </trkpt>
      <trkpt lat="47.54252" lon="7.01458">
        <ele>441</ele>
        <time>2016-06-05T10:12:41Z</time>
      </trkpt>
      <trkpt lat="47.54247" lon="7.01433">
        <ele>437</ele>
        <time>2016-06-05T10:13:04Z</time>
      </trkpt>
      <trkpt lat="47.54239" lon="7.01414">
        <ele>438</ele>
        <time>2016-06-05T10:13:11Z</time>
      </trkpt>
      <trkpt lat="47.54231" lon="7.01394">
        <ele>443</ele>
        <time>2016-06-05T10:13:22Z</time>
      </trkpt>
      <trkpt lat="47.54217" lon="7.01365">
        <ele>442</ele>
        <time>2016-06-05T10:13:37Z</time>
      </trkpt>
      <trkpt lat="47.54209" lon="7.01338">
        <ele>442</ele>
        <time>2016-06-05T10:13:54Z</time>
      </trkpt>
      <trkpt lat="47.5421" lon="7.01305">
        <ele>436</ele>
        <time>2016-06-05T10:14:11Z</time>
      </trkpt>
      <trkpt lat="47.54206" lon="7.0128">
        <ele>433</ele>
        <time>2016-06-05T10:14:26Z</time>
      </trkpt>
      <trkpt lat="47.54203" lon="7.01254">
        <ele>429</ele>
        <time>2016-06-05T10:14:42Z</time>
      </trkpt>
      <trkpt lat="47.54203" lon="7.01229">
        <ele>429</ele>
        <time>2016-06-05T10:14:54Z</time>
      </trkpt>
      <trkpt lat="47.54202" lon="7.01207">
        <ele>430</ele>
        <time>2016-06-05T10:15:05Z</time>
      </trkpt>
      <trkpt lat="47.54199" lon="7.01179">
        <ele>433</ele>
        <time>2016-06-05T10:15:19Z</time>
      </trkpt>
      <trkpt lat="47.54194" lon="7.01151">
        <ele>438</ele>
        <time>2016-06-05T10:15:32Z</time>
      </trkpt>
      <trkpt lat="47.54191" lon="7.0112">
        <ele>439</ele>
        <time>2016-06-05T10:15:47Z</time>
      </trkpt>
      <trkpt lat="47.54183" lon="7.01085">
        <ele>442</ele>
        <time>2016-06-05T10:16:03Z</time>
      </trkpt>
      <trkpt lat="47.54175" lon="7.01066">
        <ele>448</ele>
        <time>2016-06-05T10:16:12Z</time>
      </trkpt>
      <trkpt lat="47.54167" lon="7.01047">
        <ele>443</ele>
        <time>2016-06-05T10:16:25Z</time>
      </trkpt>
      <trkpt lat="47.54164" lon="7.01021">
        <ele>441</ele>
        <time>2016-06-05T10:16:43Z</time>
      </trkpt>
      <trkpt lat="47.54159" lon="7.01001">
        <ele>442</ele>
        <time>2016-06-05T10:16:53Z</time>
      </trkpt>
      <trkpt lat="47.54158" lon="7.0098">
        <ele>439</ele>
        <time>2016-06-05T10:17:07Z</time>
      </trkpt>
      <trkpt lat="47.5415" lon="7.00963">
        <ele>437</ele>
        <time>2016-06-05T10:17:19Z</time>
      </trkpt>
      <trkpt lat="47.54141" lon="7.00943">
        <ele>435</ele>
        <time>2016-06-05T10:17:31Z</time>
      </trkpt>
      <trkpt lat="47.54132" lon="7.00905">
        <ele>436</ele>
        <time>2016-06-05T10:17:48Z</time>
      </trkpt>
      <trkpt lat="47.54124" lon="7.00878">
        <ele>442</ele>
        <time>2016-06-05T10:18:07Z</time>
      </trkpt>
      <trkpt lat="47.54124" lon="7.00854">
        <ele>442</ele>
        <time>2016-06-05T10:18:22Z</time>
      </trkpt>
      <trkpt lat="47.54117" lon="7.00834">
        <ele>442</ele>
        <time>2016-06-05T10:18:38Z</time>
      </trkpt>
      <trkpt lat="47.5411" lon="7.00815">
        <ele>440</ele>
        <time>2016-06-05T10:18:55Z</time>
      </trkpt>
      <trkpt lat="47.54105" lon="7.00784">
        <ele>440</ele>
        <time>2016-06-05T10:19:12Z</time>
      </trkpt>
      <trkpt lat="47.54098" lon="7.0076">
        <ele>439</ele>
        <time>2016-06-05T10:19:24Z</time>
      </trkpt>
      <trkpt lat="47.54091" lon="7.00739">
        <ele>440</ele>
        <time>2016-06-05T10:19:36Z</time>
      </trkpt>
      <trkpt lat="47.54087" lon="7.00728">
        <ele>439</ele>
        <time>2016-06-05T10:19:43Z</time>
      </trkpt>
      <trkpt lat="47.54078" lon="7.00704">
        <ele>435</ele>
        <time>2016-06-05T10:19:59Z</time>
      </trkpt>
      <trkpt lat="47.54078" lon="7.00662">
        <ele>441</ele>
        <time>2016-06-05T10:20:15Z</time>
      </trkpt>
      <trkpt lat="47.54078" lon="7.00662">
        <ele>441</ele>
        <time>2016-06-05T10:20:20Z</time>
      </trkpt>
      <trkpt lat="47.54078" lon="7.00662">
        <ele>441</ele>
        <time>2016-06-05T10:20:21Z</time>
      </trkpt>
      <trkpt lat="47.54067" lon="7.00635">
        <ele>439</ele>
        <time>2016-06-05T10:20:42Z</time>
      </trkpt>
      <trkpt lat="47.54066" lon="7.00612">
        <ele>435</ele>
        <time>2016-06-05T10:20:53Z</time>
      </trkpt>
      <trkpt lat="47.54069" lon="7.00573">
        <ele>438</ele>
        <time>2016-06-05T10:21:10Z</time>
      </trkpt>
      <trkpt lat="47.54063" lon="7.00562">
        <ele>433</ele>
        <time>2016-06-05T10:21:22Z</time>
      </trkpt>
      <trkpt lat="47.54055" lon="7.00539">
        <ele>435</ele>
        <time>2016-06-05T10:21:31Z</time>
      </trkpt>
      <trkpt lat="47.54047" lon="7.00516">
        <ele>437</ele>
        <time>2016-06-05T10:21:45Z</time>
      </trkpt>
      <trkpt lat="47.54043" lon="7.005">
        <ele>436</ele>
        <time>2016-06-05T10:21:57Z</time>
      </trkpt>
      <trkpt lat="47.54031" lon="7.00475">
        <ele>437</ele>
        <time>2016-06-05T10:22:13Z</time>
      </trkpt>
      <trkpt lat="47.54025" lon="7.00455">
        <ele>437</ele>
        <time>2016-06-05T10:22:25Z</time>
      </trkpt>
      <trkpt lat="47.54019" lon="7.0044">
        <ele>438</ele>
        <time>2016-06-05T10:22:41Z</time>
      </trkpt>
      <trkpt lat="47.54007" lon="7.00421">
        <ele>440</ele>
        <time>2016-06-05T10:22:58Z</time>
      </trkpt>
      <trkpt lat="47.53992" lon="7.004">
        <ele>446</ele>
        <time>2016-06-05T10:23:07Z</time>
      </trkpt>
      <trkpt lat="47.53988" lon="7.00384">
        <ele>442</ele>
        <time>2016-06-05T10:23:20Z</time>
      </trkpt>
      <trkpt lat="47.53984" lon="7.00367">
        <ele>444</ele>
        <time>2016-06-05T10:23:26Z</time>
      </trkpt>
      <trkpt lat="47.53974" lon="7.0036">
        <ele>446</ele>
        <time>2016-06-05T10:23:37Z</time>
      </trkpt>
      <trkpt lat="47.53962" lon="7.00337">
        <ele>445</ele>
        <time>2016-06-05T10:23:50Z</time>
      </trkpt>
      <trkpt lat="47.53957" lon="7.00336">
        <ele>446</ele>
        <time>2016-06-05T10:23:53Z</time>
      </trkpt>
      <trkpt lat="47.53953" lon="7.00324">
        <ele>444</ele>
        <time>2016-06-05T10:24:06Z</time>
      </trkpt>
      <trkpt lat="47.53953" lon="7.00299">
        <ele>441</ele>
        <time>2016-06-05T10:24:22Z</time>
      </trkpt>
      <trkpt lat="47.5394" lon="7.00274">
        <ele>439</ele>
        <time>2016-06-05T10:24:42Z</time>
      </trkpt>
      <trkpt lat="47.53925" lon="7.00236">
        <ele>441</ele>
        <time>2016-06-05T10:26:12Z</time>
      </trkpt>
      <trkpt lat="47.5392" lon="7.0021">
        <ele>440</ele>
        <time>2016-06-05T10:26:24Z</time>
      </trkpt>
      <trkpt lat="47.53909" lon="7.00188">
        <ele>439</ele>
        <time>2016-06-05T10:26:34Z</time>
      </trkpt>
      <trkpt lat="47.53904" lon="7.00168">
        <ele>439</ele>
        <time>2016-06-05T10:26:45Z</time>
      </trkpt>
      <trkpt lat="47.53904" lon="7.00168">
        <ele>439</ele>
        <time>2016-06-05T10:26:52Z</time>
      </trkpt>
      <trkpt lat="47.53904" lon="7.00168">
        <ele>439</ele>
        <time>2016-06-05T10:26:53Z</time>
      </trkpt>
      <trkpt lat="47.53891" lon="7.00151">
        <ele>433</ele>
        <time>2016-06-05T10:27:07Z</time>
      </trkpt>
      <trkpt lat="47.53883" lon="7.00131">
        <ele>432</ele>
        <time>2016-06-05T10:27:20Z</time>
      </trkpt>
      <trkpt lat="47.53869" lon="7.0011">
        <ele>434</ele>
        <time>2016-06-05T10:27:36Z</time>
      </trkpt>
      <trkpt lat="47.53852" lon="7.00079">
        <ele>437</ele>
        <time>2016-06-05T10:27:54Z</time>
      </trkpt>
      <trkpt lat="47.53838" lon="7.0007">
        <ele>438</ele>
        <time>2016-06-05T10:28:08Z</time>
      </trkpt>
      <trkpt lat="47.53827" lon="7.00045">
        <ele>434</ele>
        <time>2016-06-05T10:28:25Z</time>
      </trkpt>
      <trkpt lat="47.53814" lon="7.00037">
        <ele>433</ele>
        <time>2016-06-05T10:28:38Z</time>
      </trkpt>
      <trkpt lat="47.53799" lon="7.00013">
        <ele>432</ele>
        <time>2016-06-05T10:28:55Z</time>
      </trkpt>
      <trkpt lat="47.53799" lon="7.00013">
        <ele>432</ele>
        <time>2016-06-05T10:29:00Z</time>
      </trkpt>
      <trkpt lat="47.53785" lon="7.00012">
        <ele>434</ele>
        <time>2016-06-05T10:29:05Z</time>
      </trkpt>
      <trkpt lat="47.53775" lon="6.99998">
        <ele>434</ele>
        <time>2016-06-05T10:29:19Z</time>
      </trkpt>
      <trkpt lat="47.53764" lon="6.99986">
        <ele>438</ele>
        <time>2016-06-05T10:29:29Z</time>
      </trkpt>
      <trkpt lat="47.53757" lon="6.99971">
        <ele>434</ele>
        <time>2016-06-05T10:29:40Z</time>
      </trkpt>
      <trkpt lat="47.53747" lon="6.99957">
        <ele>427</ele>
        <time>2016-06-05T10:29:51Z</time>
      </trkpt>
      <trkpt lat="47.53735" lon="6.99943">
        <ele>424</ele>
        <time>2016-06-05T10:30:06Z</time>
      </trkpt>
      <trkpt lat="47.53716" lon="6.99933">
        <ele>425</ele>
        <time>2016-06-05T10:30:25Z</time>
      </trkpt>
      <trkpt lat="47.53694" lon="6.99924">
        <ele>425</ele>
        <time>2016-06-05T10:30:41Z</time>
      </trkpt>
      <trkpt lat="47.53682" lon="6.99901">
        <ele>425</ele>
        <time>2016-06-05T10:30:55Z</time>
      </trkpt>
      <trkpt lat="47.5367" lon="6.99879">
        <ele>425</ele>
        <time>2016-06-05T10:31:05Z</time>
      </trkpt>
      <trkpt lat="47.53677" lon="6.99878">
        <ele>426</ele>
        <time>2016-06-05T10:31:13Z</time>
      </trkpt>
      <trkpt lat="47.53676" lon="6.99867">
        <ele>426</ele>
        <time>2016-06-05T10:31:26Z</time>
      </trkpt>
      <trkpt lat="47.53663" lon="6.99821">
        <ele>426</ele>
        <time>2016-06-05T10:31:45Z</time>
      </trkpt>
      <trkpt lat="47.53651" lon="6.99798">
        <ele>426</ele>
        <time>2016-06-05T10:32:00Z</time>
      </trkpt>
      <trkpt lat="47.53649" lon="6.99773">
        <ele>423</ele>
        <time>2016-06-05T10:32:16Z</time>
      </trkpt>
      <trkpt lat="47.53643" lon="6.99751">
        <ele>425</ele>
        <time>2016-06-05T10:32:29Z</time>
      </trkpt>
      <trkpt lat="47.53632" lon="6.99727">
        <ele>426</ele>
        <time>2016-06-05T10:32:46Z</time>
      </trkpt>
      <trkpt lat="47.53629" lon="6.99712">
        <ele>425</ele>
        <time>2016-06-05T10:32:56Z</time>
      </trkpt>
      <trkpt lat="47.53625" lon="6.99684">
        <ele>424</ele>
        <time>2016-06-05T10:33:15Z</time>
      </trkpt>
      <trkpt lat="47.53622" lon="6.99656">
        <ele>424</ele>
        <time>2016-06-05T10:33:30Z</time>
      </trkpt>
      <trkpt lat="47.53622" lon="6.99656">
        <ele>424</ele>
        <time>2016-06-05T10:33:38Z</time>
      </trkpt>
      <trkpt lat="47.53622" lon="6.99656">
        <ele>424</ele>
        <time>2016-06-05T10:33:39Z</time>
      </trkpt>
      <trkpt lat="47.53609" lon="6.9965">
        <ele>422</ele>
        <time>2016-06-05T10:33:49Z</time>
      </trkpt>
      <trkpt lat="47.53597" lon="6.99638">
        <ele>420</ele>
        <time>2016-06-05T10:34:02Z</time>
      </trkpt>
      <trkpt lat="47.53585" lon="6.99624">
        <ele>419</ele>
        <time>2016-06-05T10:34:17Z</time>
      </trkpt>
      <trkpt lat="47.53571" lon="6.99607">
        <ele>415</ele>
        <time>2016-06-05T10:34:32Z</time>
      </trkpt>
      <trkpt lat="47.53558" lon="6.99591">
        <ele>415</ele>
        <time>2016-06-05T10:34:45Z</time>
      </trkpt>
      <trkpt lat="47.53547" lon="6.99579">
        <ele>415</ele>
        <time>2016-06-05T10:34:59Z</time>
      </trkpt>
      <trkpt lat="47.53537" lon="6.99566">
        <ele>418</ele>
        <time>2016-06-05T10:35:08Z</time>
      </trkpt>
      <trkpt lat="47.53523" lon="6.99558">
        <ele>417</ele>
        <time>2016-06-05T10:35:21Z</time>
      </trkpt>
      <trkpt lat="47.5351" lon="6.9955">
        <ele>416</ele>
        <time>2016-06-05T10:35:33Z</time>
      </trkpt>
      <trkpt lat="47.53498" lon="6.99535">
        <ele>411</ele>
        <time>2016-06-05T10:35:46Z</time>
      </trkpt>
      <trkpt lat="47.53487" lon="6.99531">
        <ele>411</ele>
        <time>2016-06-05T10:35:57Z</time>
      </trkpt>
      <trkpt lat="47.53469" lon="6.99534">
        <ele>410</ele>
        <time>2016-06-05T10:36:13Z</time>
      </trkpt>
      <trkpt lat="47.53454" lon="6.99527">
        <ele>412</ele>
        <time>2016-06-05T10:36:28Z</time>
      </trkpt>
      <trkpt lat="47.53436" lon="6.99528">
        <ele>414</ele>
        <time>2016-06-05T10:36:45Z</time>
      </trkpt>
      <trkpt lat="47.53429" lon="6.99521">
        <ele>416</ele>
        <time>2016-06-05T10:36:55Z</time>
      </trkpt>
      <trkpt lat="47.53424" lon="6.99527">
        <ele>411</ele>
        <time>2016-06-05T10:37:09Z</time>
      </trkpt>
      <trkpt lat="47.53415" lon="6.99535">
        <ele>412</ele>
        <time>2016-06-05T10:37:20Z</time>
      </trkpt>
      <trkpt lat="47.53405" lon="6.99531">
        <ele>413</ele>
        <time>2016-06-05T10:37:33Z</time>
      </trkpt>
      <trkpt lat="47.5339" lon="6.99536">
        <ele>413</ele>
        <time>2016-06-05T10:37:49Z</time>
      </trkpt>
      <trkpt lat="47.53374" lon="6.99533">
        <ele>413</ele>
        <time>2016-06-05T10:38:02Z</time>
      </trkpt>
      <trkpt lat="47.53357" lon="6.99534">
        <ele>412</ele>
        <time>2016-06-05T10:38:17Z</time>
      </trkpt>
      <trkpt lat="47.53338" lon="6.99549">
        <ele>412</ele>
        <time>2016-06-05T10:38:33Z</time>
      </trkpt>
      <trkpt lat="47.53322" lon="6.99546">
        <ele>410</ele>
        <time>2016-06-05T10:38:49Z</time>
      </trkpt>
      <trkpt lat="47.533" lon="6.99556">
        <ele>410</ele>
        <time>2016-06-05T10:39:08Z</time>
      </trkpt>
      <trkpt lat="47.53285" lon="6.99564">
        <ele>409</ele>
        <time>2016-06-05T10:39:23Z</time>
      </trkpt>
      <trkpt lat="47.53259" lon="6.99579">
        <ele>414</ele>
        <time>2016-06-05T10:39:42Z</time>
      </trkpt>
      <trkpt lat="47.53251" lon="6.9959">
        <ele>413</ele>
        <time>2016-06-05T10:39:55Z</time>
      </trkpt>
      <trkpt lat="47.53235" lon="6.99606">
        <ele>412</ele>
        <time>2016-06-05T10:40:12Z</time>
      </trkpt>
      <trkpt lat="47.53218" lon="6.99618">
        <ele>412</ele>
        <time>2016-06-05T10:40:31Z</time>
      </trkpt>
      <trkpt lat="47.53199" lon="6.99643">
        <ele>415</ele>
        <time>2016-06-05T10:40:49Z</time>
      </trkpt>
      <trkpt lat="47.5318" lon="6.9965">
        <ele>410</ele>
        <time>2016-06-05T10:41:09Z</time>
      </trkpt>
      <trkpt lat="47.53167" lon="6.99658">
        <ele>408</ele>
        <time>2016-06-05T10:41:21Z</time>
      </trkpt>
      <trkpt lat="47.53157" lon="6.99663">
        <ele>410</ele>
        <time>2016-06-05T10:41:30Z</time>
      </trkpt>
      <trkpt lat="47.53144" lon="6.99674">
        <ele>409</ele>
        <time>2016-06-05T10:41:43Z</time>
      </trkpt>
      <trkpt lat="47.53136" lon="6.99682">
        <ele>411</ele>
        <time>2016-06-05T10:41:51Z</time>
      </trkpt>
      <trkpt lat="47.53122" lon="6.99694">
        <ele>411</ele>
        <time>2016-06-05T10:42:03Z</time>
      </trkpt>
      <trkpt lat="47.53102" lon="6.99713">
        <ele>411</ele>
        <time>2016-06-05T10:42:21Z</time>
      </trkpt>
      <trkpt lat="47.53081" lon="6.99727">
        <ele>409</ele>
        <time>2016-06-05T10:42:41Z</time>
      </trkpt>
      <trkpt lat="47.53065" lon="6.99745">
        <ele>411</ele>
        <time>2016-06-05T10:42:59Z</time>
      </trkpt>
      <trkpt lat="47.53047" lon="6.9975">
        <ele>409</ele>
        <time>2016-06-05T10:43:15Z</time>
      </trkpt>
      <trkpt lat="47.53034" lon="6.99767">
        <ele>410</ele>
        <time>2016-06-05T10:43:32Z</time>
      </trkpt>
      <trkpt lat="47.53022" lon="6.99778">
        <ele>411</ele>
        <time>2016-06-05T10:43:46Z</time>
      </trkpt>
      <trkpt lat="47.53009" lon="6.99791">
        <ele>408</ele>
        <time>2016-06-05T10:43:56Z</time>
      </trkpt>
      <trkpt lat="47.52999" lon="6.99799">
        <ele>407</ele>
        <time>2016-06-05T10:44:03Z</time>
      </trkpt>
      <trkpt lat="47.5299" lon="6.99804">
        <ele>408</ele>
        <time>2016-06-05T10:44:15Z</time>
      </trkpt>
      <trkpt lat="47.5297" lon="6.99838">
        <ele>410</ele>
        <time>2016-06-05T10:44:33Z</time>
      </trkpt>
      <trkpt lat="47.52962" lon="6.99849">
        <ele>409</ele>
        <time>2016-06-05T10:44:41Z</time>
      </trkpt>
      <trkpt lat="47.52974" lon="6.99873">
        <ele>408</ele>
        <time>2016-06-05T10:44:53Z</time>
      </trkpt>
      <trkpt lat="47.52974" lon="6.99902">
        <ele>411</ele>
        <time>2016-06-05T10:45:08Z</time>
      </trkpt>
      <trkpt lat="47.52978" lon="6.99933">
        <ele>410</ele>
        <time>2016-06-05T10:45:26Z</time>
      </trkpt>
      <trkpt lat="47.52974" lon="6.99954">
        <ele>410</ele>
        <time>2016-06-05T10:45:38Z</time>
      </trkpt>
      <trkpt lat="47.52956" lon="6.99965">
        <ele>412</ele>
        <time>2016-06-05T10:45:53Z</time>
      </trkpt>
      <trkpt lat="47.52935" lon="6.99977">
        <ele>410</ele>
        <time>2016-06-05T10:46:10Z</time>
      </trkpt>
      <trkpt lat="47.52923" lon="6.99984">
        <ele>409</ele>
        <time>2016-06-05T10:46:20Z</time>
      </trkpt>
      <trkpt lat="47.52901" lon="6.99989">
        <ele>410</ele>
        <time>2016-06-05T10:46:37Z</time>
      </trkpt>
      <trkpt lat="47.52888" lon="6.99994">
        <ele>409</ele>
        <time>2016-06-05T10:46:48Z</time>
      </trkpt>
      <trkpt lat="47.5287" lon="7.00003">
        <ele>411</ele>
        <time>2016-06-05T10:47:03Z</time>
      </trkpt>
      <trkpt lat="47.52851" lon="7.00012">
        <ele>414</ele>
        <time>2016-06-05T10:47:18Z</time>
      </trkpt>
      <trkpt lat="47.52838" lon="7.00018">
        <ele>412</ele>
        <time>2016-06-05T10:47:29Z</time>
      </trkpt>
      <trkpt lat="47.52827" lon="7.00029">
        <ele>409</ele>
        <time>2016-06-05T10:47:40Z</time>
      </trkpt>
      <trkpt lat="47.52806" lon="7.00043">
        <ele>410</ele>
        <time>2016-06-05T10:47:55Z</time>
      </trkpt>
      <trkpt lat="47.52793" lon="7.00045">
        <ele>406</ele>
        <time>2016-06-05T10:48:05Z</time>
      </trkpt>
      <trkpt lat="47.52772" lon="7.0006">
        <ele>410</ele>
        <time>2016-06-05T10:48:22Z</time>
      </trkpt>
      <trkpt lat="47.52752" lon="7.00069">
        <ele>410</ele>
        <time>2016-06-05T10:48:39Z</time>
      </trkpt>
      <trkpt lat="47.52732" lon="7.00086">
        <ele>414</ele>
        <time>2016-06-05T10:48:56Z</time>
      </trkpt>
      <trkpt lat="47.52721" lon="7.00097">
        <ele>414</ele>
        <time>2016-06-05T10:49:07Z</time>
      </trkpt>
      <trkpt lat="47.52701" lon="7.0012">
        <ele>416</ele>
        <time>2016-06-05T10:49:25Z</time>
      </trkpt>
      <trkpt lat="47.52688" lon="7.00141">
        <ele>416</ele>
        <time>2016-06-05T10:49:39Z</time>
      </trkpt>
      <trkpt lat="47.52673" lon="7.00157">
        <ele>415</ele>
        <time>2016-06-05T10:49:52Z</time>
      </trkpt>
      <trkpt lat="47.5266" lon="7.00164">
        <ele>414</ele>
        <time>2016-06-05T10:50:04Z</time>
      </trkpt>
      <trkpt lat="47.52643" lon="7.00179">
        <ele>414</ele>
        <time>2016-06-05T10:50:20Z</time>
      </trkpt>
      <trkpt lat="47.52626" lon="7.00174">
        <ele>407</ele>
        <time>2016-06-05T10:50:37Z</time>
      </trkpt>
      <trkpt lat="47.5262" lon="7.00155">
        <ele>402</ele>
        <time>2016-06-05T10:50:48Z</time>
      </trkpt>
      <trkpt lat="47.52613" lon="7.00135">
        <ele>398</ele>
        <time>2016-06-05T10:51:03Z</time>
      </trkpt>
      <trkpt lat="47.52601" lon="7.00124">
        <ele>404</ele>
        <time>2016-06-05T10:51:14Z</time>
      </trkpt>
      <trkpt lat="47.52601" lon="7.00124">
        <ele>357.6</ele>
        <time>2016-06-05T10:51:16Z</time>
      </trkpt>
      <trkpt lat="47.52601" lon="7.00124">
        <ele>357.6</ele>
        <time>2016-06-05T10:51:17Z</time>
      </trkpt>
    </trkseg>
  </trk>
</gpx>